Eltham High School

Historical Weather Data

                  Temp     Hi    Low   Out         Wind        Wind    Hi    Hi   Wind   Heat          THSW                Rain  Solar   Solar Hi Solar         UV    Hi     Heat    Cool    In     In          Wind  Wind    ISS   Arc.
  Date    Time     Out   Temp   Temp   Hum    Dew Speed   Dir   Run Speed   Dir  Chill  Index    THW  Index   Bar    Rain  Rate   Rad.  Energy    Rad.    UV   Dose   UV     D-D     D-D    Temp   Hum     ET   Samp   Tx   Recept  Int.
------------------------------------------------------------------------------------------------------------------------------------------------------------------------------------------------------------------------------------------
 1/12/19 12:30a   11.1   11.4   11.1    83    8.3   0.0   ---  0.00   0.0   ---   11.1   11.1   11.1    9.2  1021.7  0.00   0.0     0     0.00      0     0.0  0.00   0.0   0.150   0.000   28.2    31    0.00   700    1    100.0   30 
 1/12/19  1:00a   10.5   11.1   10.5    84    7.9   0.0   ---  0.00   0.0   ---   10.5   10.5   10.5    8.6  1021.3  0.00   0.0     0     0.00      0     0.0  0.00   0.0   0.163   0.000   27.9    31    0.00   701    1    100.0   30 
 1/12/19  1:30a   10.4   10.6   10.4    86    8.2   0.0   ---  0.00   0.0   ---   10.4   10.5   10.5    8.6  1020.9  0.00   0.0     0     0.00      0     0.0  0.00   0.0   0.164   0.000   27.8    31    0.00   703    1    100.0   30 
 1/12/19  2:00a   10.2   10.4   10.2    87    8.2   0.0   ---  0.00   0.0   ---   10.2   10.3   10.3    8.4  1020.5  0.00   0.0     0     0.00      0     0.0  0.00   0.0   0.169   0.000   27.8    31    0.00   698    1    100.0   30 
 1/12/19  2:30a   10.3   10.3   10.2    87    8.3   0.0   ---  0.00   0.0   ---   10.3   10.4   10.4    8.5  1020.2  0.00   0.0     0     0.00      0     0.0  0.00   0.0   0.167   0.000   27.7    31    0.00   701    1    100.0   30 
 1/12/19  3:00a   10.6   10.6   10.3    88    8.7   0.0   ---  0.00   0.0   ---   10.6   10.7   10.7    8.8  1019.7  0.00   0.0     0     0.00      0     0.0  0.00   0.0   0.161   0.000   27.6    31    0.00   701    1    100.0   30 
 1/12/19  3:30a   10.8   10.8   10.6    87    8.7   0.0   ---  0.00   0.0   ---   10.8   10.8   10.8    9.0  1019.3  0.00   0.0     0     0.00      0     0.0  0.00   0.0   0.157   0.000   27.6    31    0.00   702    1    100.0   30 
 1/12/19  4:00a   10.7   10.8   10.7    87    8.6   0.0   ---  0.00   0.0   ---   10.7   10.7   10.7    8.9  1018.9  0.00   0.0     0     0.00      0     0.0  0.00   0.0   0.160   0.000   27.4    31    0.00   701    1    100.0   30 
 1/12/19  4:30a   10.7   10.7   10.7    87    8.6   0.0   ---  0.00   0.0   ---   10.7   10.8   10.8    8.9  1018.4  0.00   0.0     0     0.00      0     0.0  0.00   0.0   0.159   0.000   27.4    31    0.00   700    1    100.0   30 
 1/12/19  5:00a   10.7   10.7   10.7    87    8.6   0.0   ---  0.00   0.0   ---   10.7   10.7   10.7    8.9  1018.1  0.00   0.0     0     0.00      0     0.0  0.00   0.0   0.160   0.000   27.3    31    0.00   671    1     98.1   30 
 1/12/19  5:30a   10.7   10.7   10.7    87    8.6   0.0   ---  0.00   0.0   ---   10.7   10.8   10.8    8.9  1018.2  0.00   0.0     0     0.00      0     0.0  0.00   0.0   0.159   0.000   27.3    31    0.00   700    1    100.0   30 
 1/12/19  6:00a   10.9   10.9   10.7    86    8.6   0.0   ---  0.00   0.0   ---   10.9   10.9   10.9    9.1  1018.0  0.00   0.0     0     0.00      0     0.0  0.00   0.0   0.155   0.000   27.2    31    0.00   674    1     98.5   30 
 1/12/19  6:30a   10.9   10.9   10.9    86    8.7   0.0   ---  0.00   0.0   ---   10.9   10.9   10.9    9.3  1017.8  0.00   0.0    15     0.65     26     0.0  0.00   0.0   0.154   0.000   27.2    31    0.00   698    1    100.0   30 
 1/12/19  7:00a   11.3   11.3   10.9    84    8.7   0.0   ---  0.00   0.0   ---   11.3   11.2   11.2    9.7  1017.7  0.00   0.0    25     1.08     30     0.0  0.00   0.0   0.147   0.000   27.2    31    0.00   701    1    100.0   30 
 1/12/19  7:30a   11.4   11.5   11.3    80    8.1   0.0     W  0.00  22.5     W   11.4   11.3   11.3   11.3  1017.6  0.00   0.0    45     1.94     58     0.0  0.00   0.0   0.144   0.000   27.2    31    0.00   681    1     99.6   30 
 1/12/19  8:00a   11.3   11.4   11.3    72    6.4   6.4     N  3.22  35.4     N   10.8   10.9   10.4   11.2  1017.5  0.00   0.0    85     3.66     98     0.0  0.00   0.0   0.147   0.000   27.2    32    0.05   700    1    100.0   30 
 1/12/19  8:30a   11.6   11.6   11.3    70    6.3   9.7     N  4.83  40.2     N   10.6   11.2   10.1   11.3  1017.0  0.00   0.0   106     4.56    176     0.0  0.00   0.5   0.141   0.000   27.2    32    0.00   702    1    100.0   30 
 1/12/19  9:00a   11.9   11.9   11.6    69    6.4  11.3     N  5.63  49.9     N   10.7   11.5   10.2   12.3  1016.7  0.00   0.0   177     7.61    265     0.4  0.09   1.1   0.134   0.000   27.2    32    0.00   699    1    100.0   30 
 1/12/19  9:30a   12.7   12.7   11.9    66    6.5  16.1     N  8.05  49.9     N   11.1   12.1   10.2   14.3  1016.2  0.00   0.0   393    16.90    541     1.6  0.34   2.0   0.118   0.000   27.2    31    0.10   701    1    100.0   30 
 1/12/19 10:00a   12.4   12.7   12.3    66    6.2  19.3   NNW  9.66  53.1   NNW   10.4   11.9    9.6   11.8  1015.8  0.00   0.0   261    11.22    297     1.3  0.28   1.5   0.124   0.000   27.3    31    0.23   660    1     96.5   30 
 1/12/19 10:30a   13.3   13.3   12.4    63    6.4  16.1     N  8.05  66.0   NNE   11.8   12.7   10.8   14.4  1015.3  0.00   0.0   407    17.50    504     2.4  0.51   3.0   0.105   0.000   27.4    31    0.00   699    1    100.0   30 
 1/12/19 11:00a   13.9   13.9   13.2    63    7.0  22.5     N 11.27  64.4    NE   12.2   13.3   10.8   14.7  1015.1  0.00   0.0   546    23.48    647     3.4  0.73   4.6   0.091   0.000   27.7    31    0.33   703    1    100.0   30 
 1/12/19 11:30a   14.6   14.6   13.9    61    7.2  19.3   NNW  9.66  61.2    NW   13.3   13.9   11.8   16.2  1014.6  0.00   0.0   591    25.42    944     4.0  0.86   5.9   0.078   0.000   27.8    30    0.00   672    1     98.2   30 
 1/12/19 12:00p   14.4   15.1   14.4    64    7.7  20.9     N 10.46  59.5    NW   12.9   13.8   11.5   14.9  1014.4  0.00   0.0   472    20.30    863     3.7  0.79   6.0   0.081   0.000   28.1    30    0.38   703    1    100.0   30 
 1/12/19 12:30p   14.8   15.1   14.3    63    7.9  24.1   NNW 12.07  74.0     N   13.2   14.2   11.5   15.6  1013.9  0.00   0.0   631    27.14    991     4.8  1.03   7.4   0.073   0.000   28.3    30    0.00   701    1    100.0   30 
 1/12/19  1:00p   15.3   15.5   14.8    64    8.5  20.9     N 10.46  67.6   NNW   14.0   14.7   12.4   16.5  1013.2  0.00   0.0   567    24.38    758     4.4  0.94   5.6   0.064   0.000   28.3    30    0.41   701    1    100.0   30 
 1/12/19  1:30p   15.3   15.3   15.1    64    8.6  22.5     N 11.27  69.2    NW   13.9   14.8   12.3   15.2  1012.6  0.00   0.0   400    17.20    580     3.4  0.73   5.1   0.063   0.000   28.3    30    0.00   703    1    100.0   30 
 1/12/19  2:00p   16.9   16.9   15.3    60    9.1  22.5     N 11.27  66.0   WNW   16.0   16.3   14.0   18.2  1011.8  0.00   0.0   634    27.27   1375     5.8  1.24   9.6   0.029   0.000   28.3    30    0.43   697    1    100.0   30 
 1/12/19  2:30p   15.7   17.2   15.7    66    9.4  20.9   NNW 10.46  69.2    NE   14.6   15.3   13.0   15.7  1011.4  0.00   0.0   359    15.44    573     3.3  0.71   9.6   0.054   0.000   28.3    30    0.00   700    1    100.0   30 
 1/12/19  3:00p   15.4   16.0   15.3    70    9.9  25.7     N 12.87  70.8   NNW   13.8   15.1   12.2   15.2  1011.1  0.00   0.0   428    18.41    731     3.4  0.73   5.6   0.061   0.000   28.3    30    0.36   671    1     98.1   30 
 1/12/19  3:30p   14.4   15.5   14.4    79   10.8  12.9   NNE  6.44  45.1     N   13.6   14.2   12.9   13.4  1011.8  2.03 140.7   120     5.16    260     0.7  0.15   1.7   0.082   0.000   28.3    30    0.00   703    1    100.0   30 
 1/12/19  4:00p   12.6   14.4   12.6    87   10.4   6.4     W  3.22  37.0   WNW   12.3   12.6   12.1   11.4  1011.0 10.67 159.0    33     1.42     42     0.0  0.00   0.0   0.120   0.000   28.2    31    0.08   701    1    100.0   30 
 1/12/19  4:30p   12.8   12.8   12.2    90   11.2   1.6     N  0.80  20.9     N   12.8   12.8   12.8   13.0  1010.4  0.51   5.8    85     3.66    132     0.2  0.04   0.6   0.116   0.000   28.3    31    0.00   701    1    100.0   30 
 1/12/19  5:00p   13.3   13.3   12.8    91   11.9   0.0     N  0.00  16.1     N   13.3   13.4   13.4   13.5  1010.0  0.25   0.0    74     3.18    128     0.1  0.02   0.6   0.104   0.000   28.2    31    0.05   700    1    100.0   30 
 1/12/19  5:30p   12.7   13.3   12.7    91   11.2   1.6     N  0.80  35.4     N   12.7   12.7   12.7   12.5  1009.6  4.32 128.3    52     2.24     81     0.0  0.00   0.0   0.118   0.000   28.3    32    0.00   701    1    100.0   30 
 1/12/19  6:00p   13.0   13.0   12.7    92   11.7   0.0   ---  0.00   0.0   ---   13.0   13.1   13.1   13.0  1009.2  0.00   0.0    53     2.28     67     0.0  0.00   0.0   0.111   0.000   28.2    32    0.03   673    1     98.4   30 
 1/12/19  6:30p   12.8   13.0   12.8    92   11.5   0.0     N  0.00  14.5     N   12.8   12.8   12.8   12.8  1009.1  0.00   0.0    51     2.19     56     0.0  0.00   0.0   0.116   0.000   28.2    32    0.00   701    1    100.0   30 
 1/12/19  7:00p   12.6   12.8   12.6    91   11.1   0.0   ---  0.00   0.0   ---   12.6   12.6   12.6   12.5  1009.0  0.00   0.0    39     1.68     49     0.0  0.00   0.0   0.120   0.000   28.3    32    0.03   676    1     98.8   30 
 1/12/19  7:30p   12.3   12.6   12.2    91   10.9   0.0   ---  0.00   0.0   ---   12.3   12.3   12.3   12.0  1009.1  0.00   0.0    27     1.16     40     0.0  0.00   0.0   0.126   0.000   28.3    32    0.00   701    1    100.0   30 
 1/12/19  8:00p   12.1   12.3   12.1    91   10.7   0.0   ---  0.00   0.0   ---   12.1   12.2   12.2   10.9  1008.9  0.00   0.0    13     0.56     21     0.0  0.00   0.0   0.130   0.000   28.3    33    0.00   698    1    100.0   30 
 1/12/19  8:30p   12.0   12.1   12.0    91   10.6   0.0   ---  0.00   0.0   ---   12.0   12.1   12.1   10.7  1008.9  0.00   0.0     5     0.22     18     0.0  0.00   0.0   0.132   0.000   28.3    33    0.00   702    1    100.0   30 
 1/12/19  9:00p   11.9   12.0   11.9    92   10.6   0.0   ---  0.00   0.0   ---   11.9   12.0   12.0   10.6  1009.0  0.00   0.0     0     0.00      0     0.0  0.00   0.0   0.134   0.000   28.2    33    0.00   698    1    100.0   30 
 1/12/19  9:30p   11.7   11.9   11.7    90   10.1   1.6   WSW  0.80  30.6     W   11.7   11.8   11.8   10.3  1009.4  0.00   0.0     0     0.00      0     0.0  0.00   0.0   0.138   0.000   28.1    33    0.00   702    1    100.0   30 
 1/12/19 10:00p   11.9   12.1   11.7    79    8.4   3.2   WSW  1.61  43.5     W   11.9   11.8   11.8   10.3  1009.7  0.25   0.0     0     0.00      0     0.0  0.00   0.0   0.133   0.000   27.9    33    0.00   702    1    100.0   30 
 1/12/19 10:30p   10.9   11.9   10.9    84    8.3   1.6   WSW  0.80  24.1   WNW   10.9   10.9   10.9    9.4  1009.3  0.00   0.0     0     0.00      0     0.0  0.00   0.0   0.154   0.000   27.8    33    0.00   702    1    100.0   30 
 1/12/19 11:00p   10.6   10.9   10.6    85    8.2   4.8   WSW  2.41  48.3   NNE   10.5   10.6   10.4    8.9  1009.1  0.51   9.1     0     0.00      0     0.0  0.00   0.0   0.161   0.000   27.8    33    0.03   699    1    100.0   30 
 1/12/19 11:30p   10.2   10.6   10.1    87    8.1   0.0   WSW  0.00  14.5   WSW   10.2   10.2   10.2    8.7  1008.8  0.00   0.0     0     0.00      0     0.0  0.00   0.0   0.170   0.000   27.7    33    0.00   698    1    100.0   30 
 2/12/19 12:00a    9.8   10.2    9.8    88    7.9   0.0   ---  0.00   0.0   ---    9.8    9.9    9.9    8.4  1008.7  0.00   0.0     0     0.00      0     0.0  0.00   0.0   0.178   0.000   27.6    33    0.00   703    1    100.0   30 
 2/12/19 12:30a    9.7    9.8    9.6    89    7.9   0.0   ---  0.00   0.0   ---    9.7    9.8    9.8    8.3  1008.4  0.00   0.0     0     0.00      0     0.0  0.00   0.0   0.181   0.000   27.4    33    0.00   673    1     98.4   30 
 2/12/19  1:00a    9.5    9.7    9.5    89    7.8   0.0   ---  0.00   0.0   ---    9.5    9.7    9.7    8.1  1008.1  0.00   0.0     0     0.00      0     0.0  0.00   0.0   0.184   0.000   27.3    33    0.00   701    1    100.0   30 
 2/12/19  1:30a    9.7    9.7    9.5    91    8.3   0.0   ---  0.00   0.0   ---    9.7    9.8    9.8    8.3  1007.6  0.00   0.0     0     0.00      0     0.0  0.00   0.0   0.181   0.000   27.2    33    0.00   699    1    100.0   30 
 2/12/19  2:00a    9.4    9.7    9.4    91    8.0   0.0   ---  0.00   0.0   ---    9.4    9.6    9.6    8.1  1007.3  0.00   0.0     0     0.00      0     0.0  0.00   0.0   0.185   0.000   27.1    33    0.00   700    1    100.0   30 
 2/12/19  2:30a    9.4    9.4    9.4    91    8.0   0.0   WSW  0.00  14.5   WSW    9.4    9.6    9.6    8.1  1007.0  0.00   0.0     0     0.00      0     0.0  0.00   0.0   0.186   0.000   27.0    33    0.00   700    1    100.0   30 
 2/12/19  3:00a    9.8    9.8    9.4    87    7.7   0.0   NNW  0.00  19.3   NNW    9.8    9.9    9.9    8.3  1006.9  0.00   0.0     0     0.00      0     0.0  0.00   0.0   0.178   0.000   27.0    33    0.00   701    1    100.0   30 
 2/12/19  3:30a   10.2   10.2    9.8    83    7.5   3.2     W  1.61  27.4     N   10.2   10.2   10.2    8.7  1007.0  0.00   0.0     0     0.00      0     0.0  0.00   0.0   0.169   0.000   26.9    33    0.00   677    1     99.0   30 
 2/12/19  4:00a   10.0   10.2    9.9    83    7.2   4.8   WSW  2.41  35.4   NNW    9.8   10.1    9.9    8.3  1007.0  0.25   0.0     0     0.00      0     0.0  0.00   0.0   0.174   0.000   26.9    33    0.03   702    1    100.0   30 
 2/12/19  4:30a   10.1   10.1   10.0    82    7.1   3.2   WSW  1.61  41.8   WNW   10.1   10.1   10.1    8.5  1006.9  0.00   0.0     0     0.00      0     0.0  0.00   0.0   0.172   0.000   26.8    33    0.00   667    1     97.5   30 
 2/12/19  5:00a    9.9   10.1    9.9    82    7.0   6.4   WNW  3.22  43.5   WNW    9.3    9.9    9.3    7.8  1007.2  0.00   0.0     0     0.00      0     0.0  0.00   0.0   0.175   0.000   26.8    33    0.03   699    1    100.0   30 
 2/12/19  5:30a    9.8    9.9    9.7    81    6.7   4.8     W  2.41  25.7     W    9.6    9.8    9.6    8.0  1007.4  0.00   0.0     0     0.00      0     0.0  0.00   0.0   0.178   0.000   26.7    33    0.00   703    1    100.0   30 
 2/12/19  6:00a    9.6    9.8    9.5    81    6.5   3.2    SW  1.61  32.2   WSW    9.6    9.6    9.6    8.0  1007.6  0.00   0.0     2     0.09      9     0.0  0.00   0.0   0.183   0.000   26.6    33    0.00   702    1    100.0   30 
 2/12/19  6:30a    9.5    9.6    9.4    81    6.4   4.8   WSW  2.41  25.7     W    9.3    9.4    9.2    8.0  1008.0  0.00   0.0    28     1.20     46     0.0  0.00   0.0   0.184   0.000   26.6    33    0.00   701    1    100.0   30 
 2/12/19  7:00a   10.0   10.0    9.5    79    6.5   6.4   WSW  3.22  33.8    NW    9.4   10.0    9.4    9.2  1008.3  0.00   0.0   104     4.47    169     0.0  0.00   0.0   0.174   0.000   26.5    33    0.00   702    1    100.0   30 
 2/12/19  7:30a   10.4   10.4   10.0    74    6.0   9.7     W  4.83  38.6    SW    9.2   10.3    9.0   11.8  1008.7  0.00   0.0   183     7.87    272     0.0  0.00   0.0   0.164   0.000   26.5    32    0.05   698    1    100.0   30 
 2/12/19  8:00a   10.4   10.6   10.3    74    6.0   8.0    SW  4.02  53.1    SW    9.4   10.2    9.3   11.3  1009.2  0.00   0.0   142     6.11    204     0.0  0.00   0.0   0.166   0.000   26.5    32    0.10   702    1    100.0   30 
 2/12/19  8:30a   10.9   10.9   10.4    71    5.9   9.7    SW  4.83  33.8    SW    9.8   10.7    9.5   12.6  1009.6  0.00   0.0   210     9.03    325     0.5  0.11   0.9   0.154   0.000   26.6    32    0.00   702    1    100.0   30 
 2/12/19  9:00a   11.3   11.4   10.9    66    5.2  14.5    SW  7.24  51.5    SW    9.6   10.8    9.0   11.7  1010.0  0.00   0.0   232     9.98    339     0.7  0.15   1.3   0.147   0.000   26.5    32    0.15   702    1    100.0   30 
 2/12/19  9:30a   11.3   11.3   11.2    67    5.4  12.9     W  6.44  43.5     W    9.8   10.8    9.2   11.2  1010.3  0.00   0.0   199     8.56    325     0.7  0.15   1.3   0.147   0.000   26.0    32    0.00   701    1    100.0   30 
 2/12/19 10:00a   12.0   12.0   11.2    65    5.6  12.9   SSW  6.44  49.9   WSW   10.6   11.4    9.9   13.1  1010.4  0.00   0.0   307    13.20    775     1.8  0.39   3.8   0.132   0.000   25.7    32    0.18   702    1    100.0   30 
 2/12/19 10:30a   12.8   13.1   12.0    61    5.5  17.7    SW  8.85  53.1   WNW   11.2   12.2   10.1   14.1  1010.7  0.00   0.0   478    20.56    902     2.8  0.60   4.7   0.115   0.000   25.7    32    0.00   703    1    100.0   30 
 2/12/19 11:00a   13.0   13.3   12.6    57    4.7  17.7    SW  8.85  49.9     W   11.4   12.2   10.2   13.6  1011.0  0.00   0.0   419    18.02   1164     2.9  0.62   5.3   0.111   0.000   25.9    32    0.36   702    1    100.0   30 
 2/12/19 11:30a   12.3   13.1   12.3    64    5.7  14.5    SW  7.24  43.5     W   10.8   11.8   10.0   11.5  1011.5  0.00   0.0   209     8.99    325     1.3  0.28   2.0   0.125   0.000   26.1    32    0.00   698    1    100.0   30 
 2/12/19 12:00p   11.3   12.8   11.3    69    5.8  12.9   SSW  6.44  59.5     W    9.8   10.9    9.3   10.8  1012.4  0.76  15.0   210     9.03    415     1.6  0.34   3.3   0.146   0.000   26.3    32    0.18   702    1    100.0   30 
 2/12/19 12:30p   12.4   12.4   10.3    68    6.6  17.7   WSW  8.85  61.2     W   10.6   11.9    9.8   13.9  1012.6  0.25  14.0   540    23.22   1246     4.7  1.01   7.9   0.124   0.000   26.4    32    0.00   699    1    100.0   30 
 2/12/19  1:00p   13.8   13.8   12.4    59    6.0  19.3    SW  9.66  54.7    SW   12.3   13.1   10.9   15.8  1012.6  0.00   0.0   845    36.34   1239     6.3  1.35   8.6   0.094   0.000   26.6    32    0.46   697    1    100.0   30 
 2/12/19  1:30p   13.2   14.6   13.1    58    5.1  22.5    SW 11.27  56.3     W   11.2   12.4    9.8   12.8  1012.8  0.00   0.0   426    18.32   1310     4.5  0.96   8.3   0.108   0.000   26.8    31    0.00   700    1    100.0   30 
 2/12/19  2:00p   13.2   13.6   12.4    65    6.7  14.5   SSW  7.24  41.8   WSW   11.9   12.6   10.9   12.8  1013.3  0.25   0.0   251    10.79   1276     3.2  0.69   8.1   0.108   0.000   27.3    31    0.36   702    1    100.0   30 
 2/12/19  2:30p   12.0   13.2   10.8    76    7.9  14.5     S  7.24  51.5    SE   10.4   11.7    9.9   11.7  1013.7  0.51   7.1   229     9.85    554     3.2  0.69   7.4   0.132   0.000   27.6    31    0.00   698    1    100.0   30 
 2/12/19  3:00p   12.7   13.6   12.0    65    6.3  17.7    SW  8.85  57.9   SSE   11.0   12.2   10.1   12.7  1014.2  0.00   0.0   338    14.54   1209     3.3  0.71   7.5   0.117   0.000   27.7    31    0.30   702    1    100.0   30 
 2/12/19  3:30p   13.7   14.3   12.8    57    5.3  16.1     S  8.05  41.8   SSE   12.3   12.8   11.0   15.6  1014.1  0.00   0.0   574    24.69   1136     4.0  0.86   6.9   0.097   0.000   27.4    31    0.00   701    1    100.0   30 
 2/12/19  4:00p   14.4   15.1   13.7    53    5.0  12.9    SW  6.44  38.6   SSE   13.6   13.4   12.2   15.3  1014.1  0.00   0.0   354    15.22   1165     2.9  0.62   5.7   0.081   0.000   27.3    31    0.36   702    1    100.0   30 
 2/12/19  4:30p   13.7   14.4   13.6    61    6.3  20.9   SSE 10.46  61.2     W   12.0   13.1   10.7   12.7  1014.6  0.00   0.0   265    11.40    902     2.2  0.47   4.3   0.096   0.000   27.2    30    0.00   700    1    100.0   30 
 2/12/19  5:00p   14.0   14.1   13.4    58    5.9  11.3     S  5.63  32.2    SW   13.3   13.2   12.2   14.3  1014.5  0.00   0.0   217     9.33    345     1.2  0.26   2.2   0.090   0.000   27.3    30    0.00   700    1    100.0   30 
 2/12/19  5:30p   13.6   14.2   13.6    62    6.5   9.7     S  4.83  51.5    SW   13.0   12.9   12.2   14.2  1015.0  0.00   0.0   194     8.34    332     0.9  0.19   2.0   0.098   0.000   27.3    30    0.23   702    1    100.0   30 
 2/12/19  6:00p   13.4   13.6   13.4    62    6.3   9.7   WSW  4.83  33.8     W   12.7   12.7   12.0   12.8  1015.2  0.00   0.0   106     4.56    148     0.0  0.00   0.5   0.103   0.000   27.2    30    0.13   702    1    100.0   30 
 2/12/19  6:30p   13.9   14.1   13.3    54    4.8  12.9    SW  6.44  56.3     W   13.0   13.0   11.7   13.9  1015.6  0.00   0.0   181     7.78    445     0.3  0.06   0.8   0.091   0.000   27.3    30    0.00   702    1    100.0   30 
 2/12/19  7:00p   13.3   14.1   13.3    57    5.0  11.3   SSW  5.63  78.9     W   12.4   12.5   11.4   12.7  1016.2  0.00   0.0   106     4.56    174     0.0  0.00   0.5   0.104   0.000   27.3    30    0.15   700    1    100.0   30 
 2/12/19  7:30p   13.2   13.4   13.2    56    4.6  11.3   WSW  5.63  37.0    SW   12.3   12.4   11.3   12.0  1016.6  0.00   0.0    82     3.53    202     0.0  0.00   0.0   0.106   0.000   27.3    30    0.00   700    1    100.0   30 
 2/12/19  8:00p   13.1   13.3   13.1    56    4.5  14.5   WSW  7.24  46.7     W   11.8   12.3   10.6    9.1  1017.0  0.00   0.0    18     0.77     35     0.0  0.00   0.0   0.109   0.000   27.4    30    0.10   698    1    100.0   30 
 2/12/19  8:30p   12.9   13.2   12.8    58    4.8  11.3   WSW  5.63  35.4   WSW   11.9   12.1   11.0    9.3  1017.4  0.00   0.0     3     0.13     12     0.0  0.00   0.0   0.113   0.000   27.2    29    0.00   700    1    100.0   30 
 2/12/19  9:00p   12.7   12.9   12.7    58    4.6  14.5   WSW  7.24  48.3     W   11.3   11.9   10.2    8.5  1017.9  0.00   0.0     0     0.00      0     0.0  0.00   0.0   0.118   0.000   27.3    29    0.08   682    1     99.7   30 
 2/12/19  9:30p   12.4   12.7   12.4    59    4.6  11.3   WSW  5.63  46.7   WSW   11.4   11.7   10.5    8.7  1018.0  0.00   0.0     0     0.00      0     0.0  0.00   0.0   0.123   0.000   27.1    29    0.00   702    1    100.0   30 
 2/12/19 10:00p   12.2   12.4   12.2    62    5.1   3.2   SSW  1.61  25.7   NNW   12.2   11.6   11.6    9.8  1018.2  0.00   0.0     0     0.00      0     0.0  0.00   0.0   0.128   0.000   27.2    29    0.05   702    1    100.0   30 
 2/12/19 10:30p   11.7   12.1   11.7    65    5.4   1.6     W  0.80  24.1     W   11.7   11.2   11.2    9.4  1018.4  0.00   0.0     0     0.00      0     0.0  0.00   0.0   0.138   0.000   27.2    29    0.00   700    1    100.0   30 
 2/12/19 11:00p   11.0   11.8   11.0    74    6.5   1.6     W  0.80  33.8     W   11.0   10.8   10.8    9.0  1018.4  0.25   0.0     0     0.00      0     0.0  0.00   0.0   0.153   0.000   27.2    29    0.03   703    1    100.0   30 
 2/12/19 11:30p   10.2   11.0   10.2    80    6.9   0.0     W  0.00  24.1     W   10.2   10.2   10.2    8.4  1018.2  0.00   0.0     0     0.00      0     0.0  0.00   0.0   0.170   0.000   27.1    29    0.00   700    1    100.0   30 
 3/12/19 12:00a   10.2   10.2   10.1    82    7.2   0.0   ---  0.00   0.0   ---   10.2   10.2   10.2    8.4  1018.2  0.00   0.0     0     0.00      0     0.0  0.00   0.0   0.170   0.000   27.1    29    0.03   702    1    100.0   30 
 3/12/19 12:30a   10.1   10.2   10.1    82    7.2   0.0   ---  0.00   0.0   ---   10.1   10.1   10.1    8.4  1017.9  0.00   0.0     0     0.00      0     0.0  0.00   0.0   0.171   0.000   27.0    29    0.00   702    1    100.0   30 
 3/12/19  1:00a   10.9   10.9   10.1    77    7.0   0.0     W  0.00  16.1     W   10.9   10.7   10.7    9.0  1017.7  0.00   0.0     0     0.00      0     0.0  0.00   0.0   0.155   0.000   27.0    29    0.03   698    1    100.0   30 
 3/12/19  1:30a   11.3   11.3   10.9    75    7.1   1.6   NNW  0.80  25.7   NNW   11.3   11.1   11.1    9.4  1017.5  0.00   0.0     0     0.00      0     0.0  0.00   0.0   0.146   0.000   26.9    29    0.00   700    1    100.0   30 
 3/12/19  2:00a   11.7   11.7   11.3    74    7.2   4.8     W  2.41  35.4   NNW   11.7   11.4   11.3    9.6  1017.4  0.00   0.0     0     0.00      0     0.0  0.00   0.0   0.139   0.000   26.9    29    0.03   700    1    100.0   30 
 3/12/19  2:30a   11.7   11.7   11.7    74    7.2   1.6    NW  0.80  38.6    NW   11.7   11.4   11.4    9.7  1017.3  0.00   0.0     0     0.00      0     0.0  0.00   0.0   0.138   0.000   26.8    30    0.00   702    1    100.0   30 
 3/12/19  3:00a   11.8   11.8   11.7    73    7.1   1.6    NW  0.80  20.9   WSW   11.8   11.5   11.5    9.8  1017.3  0.00   0.0     0     0.00      0     0.0  0.00   0.0   0.135   0.000   26.8    30    0.03   699    1    100.0   30 
 3/12/19  3:30a   12.0   12.0   11.8    72    7.1   1.6    NW  0.80  24.1    NW   12.0   11.7   11.7    9.9  1017.2  0.00   0.0     0     0.00      0     0.0  0.00   0.0   0.132   0.000   26.8    30    0.00   700    1    100.0   30 
 3/12/19  4:00a   12.1   12.1   12.0    73    7.4   6.4    NW  3.22  33.8     W   11.7   11.7   11.3    9.5  1017.2  0.00   0.0     0     0.00      0     0.0  0.00   0.0   0.131   0.000   26.8    30    0.03   678    1     99.1   30 
 3/12/19  4:30a   11.9   12.1   11.9    75    7.6   1.6     W  0.80  24.1   WNW   11.9   11.7   11.7    9.9  1017.3  0.00   0.0     0     0.00      0     0.0  0.00   0.0   0.133   0.000   26.8    30    0.00   702    1    100.0   30 
 3/12/19  5:00a   12.2   12.2   11.9    74    7.7   3.2    NW  1.61  29.0   SSW   12.2   11.9   11.9   10.2  1017.4  0.00   0.0     0     0.00      0     0.0  0.00   0.0   0.128   0.000   26.8    30    0.03   703    1    100.0   30 
 3/12/19  5:30a   12.3   12.3   12.2    73    7.6   3.2     W  1.61  32.2     W   12.3   12.0   12.0   10.3  1017.6  0.00   0.0     0     0.00      0     0.0  0.00   0.0   0.125   0.000   26.7    30    0.00   702    1    100.0   30 
 3/12/19  6:00a   12.4   12.4   12.3    74    7.9   3.2     W  1.61  32.2     W   12.4   12.2   12.2   10.5  1017.9  0.00   0.0     0     0.00      0     0.0  0.00   0.0   0.123   0.000   26.7    30    0.03   701    1    100.0   30 
 3/12/19  6:30a   12.5   12.5   12.4    74    8.0   3.2   WSW  1.61  30.6   WSW   12.5   12.2   12.2   10.6  1018.1  0.00   0.0     8     0.34     16     0.0  0.00   0.0   0.122   0.000   26.8    30    0.00   667    1     97.5   30 
 3/12/19  7:00a   12.8   12.8   12.5    74    8.3   6.4     W  3.22  35.4     W   12.6   12.4   12.1   10.9  1018.3  0.00   0.0    42     1.81     81     0.0  0.00   0.0   0.116   0.000   26.7    30    0.03   703    1    100.0   30 
 3/12/19  7:30a   13.4   13.4   12.8    73    8.6   4.8   WSW  2.41  37.0    SW   13.4   13.0   12.9   13.9  1018.2  0.00   0.0   107     4.60    323     0.0  0.00   0.5   0.103   0.000   26.7    30    0.00   700    1    100.0   30 
 3/12/19  8:00a   14.1   14.1   13.4    71    8.9   9.7   WSW  4.83  40.2     W   13.6   13.7   13.0   16.0  1018.5  0.00   0.0   212     9.12    445     0.2  0.04   0.7   0.089   0.000   26.8    30    0.10   668    1     97.7   30 
 3/12/19  8:30a   14.5   14.6   14.0    70    9.1  12.9     W  6.44  41.8   WNW   13.7   14.1   12.8   15.2  1019.1  0.00   0.0   176     7.57    432     0.5  0.11   1.0   0.080   0.000   26.6    31    0.00   701    1    100.0   30 
 3/12/19  9:00a   14.7   14.7   14.3    70    9.3  11.3   WSW  5.63  41.8     W   14.1   14.3   13.5   14.8  1019.1  0.00   0.0   131     5.63    176     0.5  0.11   0.9   0.075   0.000   26.2    32    0.13   700    1    100.0   30 
 3/12/19  9:30a   15.7   15.7   14.7    67    9.6  16.1     W  8.05  48.3   WNW   14.8   15.2   13.6   16.5  1019.2  0.00   0.0   269    11.57    415     1.7  0.36   3.0   0.056   0.000   26.2    32    0.00   700    1    100.0   30 
 3/12/19 10:00a   16.7   16.8   15.7    62    9.3  16.1     W  8.05  51.5     W   16.1   16.1   14.6   18.7  1019.1  0.00   0.0   423    18.19   1053     2.7  0.58   4.4   0.035   0.000   26.3    33    0.28   701    1    100.0   30 
 3/12/19 10:30a   16.9   17.3   16.6    61    9.4  14.5     W  7.24  53.1    NW   16.5   16.4   15.1   18.8  1018.9  0.00   0.0   393    16.90   1113     3.1  0.66   5.7   0.029   0.000   26.6    33    0.00   703    1    100.0   30 
 3/12/19 11:00a   17.2   17.5   16.9    61    9.6  16.1   WSW  8.05  61.2     W   16.7   16.7   15.2   17.8  1018.9  0.00   0.0   307    13.20    401     2.6  0.56   4.0   0.023   0.000   26.9    33    0.30   702    1    100.0   30 
 3/12/19 11:30a   17.8   17.8   17.2    60   10.0  19.3   WSW  9.66  57.9    SW   17.3   17.3   15.4   18.4  1018.8  0.00   0.0   377    16.21    601     3.2  0.69   4.8   0.010   0.000   27.0    34    0.00   670    1     98.0   30 
 3/12/19 12:00p   19.2   19.2   17.8    54    9.7  17.7     W  8.85  49.9     W   19.1   18.6   17.1   20.7  1018.6  0.00   0.0   445    19.14    909     4.5  0.96   9.0   0.000   0.019   27.1    34    0.36   700    1    100.0   30 
 3/12/19 12:30p   19.4   19.5   19.0    53    9.6  19.3   WSW  9.66  54.7     W   19.3   18.8   17.1   20.3  1018.5  0.00   0.0   426    18.32    555     4.6  0.99   9.5   0.000   0.023   27.2    34    0.00   699    1    100.0   30 
 3/12/19  1:00p   19.8   20.0   19.4    50    9.1  17.7   WSW  8.85  53.1     W   19.8   19.1   17.6   20.9  1018.3  0.00   0.0   414    17.80    656     4.6  0.99  10.3   0.000   0.031   27.2    34    0.41   702    1    100.0   30 
 3/12/19  1:30p   20.5   20.8   19.9    48    9.1  19.3   WSW  9.66  53.1   WSW   20.5   19.6   18.0   21.7  1017.8  0.00   0.0   489    21.03   1464     4.9  1.05  10.4   0.000   0.045   27.2    34    0.00   702    1    100.0   30 
 3/12/19  2:00p   20.6   20.7   20.6    48    9.2  20.9    SW 10.46  62.8   WSW   20.6   19.7   17.8   20.8  1017.8  0.00   0.0   399    17.16    531     3.9  0.84   7.2   0.000   0.046   27.1    35    0.00   703    1    100.0   30 
 3/12/19  2:30p   21.2   21.2   20.6    47    9.4  20.9   WSW 10.46  67.6   WSW   21.2   20.1   18.3   21.2  1017.7  0.00   0.0   399    17.16    580     4.8  1.03   9.5   0.000   0.059   27.2    35    0.46   702    1    100.0   30 
 3/12/19  3:00p   21.0   21.2   20.8    47    9.3  19.3   WSW  9.66  54.7   WSW   21.0   19.9   18.4   20.8  1017.7  0.00   0.0   324    13.93    577     3.1  0.66   7.1   0.000   0.056   27.2    35    0.41   701    1    100.0   30 
 3/12/19  3:30p   21.7   21.7   20.9    46    9.5  14.5   WSW  7.24  45.1   WSW   21.7   20.7   19.8   22.7  1017.6  0.00   0.0   344    14.79   1209     2.9  0.62   7.1   0.000   0.069   27.3    35    0.00   702    1    100.0   30 
 3/12/19  4:00p   21.8   22.0   21.6    45    9.3  17.7   WSW  8.85  49.9     S   21.8   20.8   19.5   23.1  1017.3  0.00   0.0   432    18.58   1100     3.5  0.75   6.4   0.000   0.072   27.3    35    0.38   701    1    100.0   30 
 3/12/19  4:30p   21.4   21.8   21.4    49   10.3  14.5    SW  7.24  56.3   WSW   21.4   20.6   19.6   21.9  1017.6  0.00   0.0   248    10.67    362     2.3  0.49   4.4   0.000   0.065   27.3    35    0.00   703    1    100.0   30 
 3/12/19  5:00p   21.4   22.1   21.3    49   10.2  14.5    SW  7.24  48.3   WSW   21.4   20.5   19.6   23.7  1017.9  0.00   0.0   413    17.76    895     2.4  0.51   3.8   0.000   0.064   27.2    35    0.36   699    1    100.0   30 
 3/12/19  5:30p   20.7   21.4   20.7    49    9.6  17.7    SW  8.85  54.7   WSW   20.7   19.8   18.4   20.1  1018.1  0.00   0.0   189     8.13    234     1.0  0.21   1.2   0.000   0.049   27.2    35    0.00   699    1    100.0   30 
 3/12/19  6:00p   20.4   20.8   20.3    54   10.8  12.9    SW  6.44  48.3    NW   20.4   19.8   19.1   21.9  1018.3  0.00   0.0   222     9.55    519     1.0  0.21   1.7   0.000   0.043   27.3    35    0.25   674    1     98.5   30 
 3/12/19  6:30p   20.7   20.7   20.5    51   10.2  11.3   SSW  5.63  41.8     W   20.7   19.9   19.7   24.3  1018.8  0.00   0.0   348    14.97    475     0.9  0.19   1.3   0.000   0.049   27.3    34    0.00   699    1    100.0   30 
 3/12/19  7:00p   20.1   20.7   20.1    50    9.4  12.9    SW  6.44  48.3   WSW   20.1   19.4   18.7   21.9  1019.4  0.00   0.0   239    10.28    318     0.4  0.09   0.7   0.000   0.037   27.1    34    0.25   701    1    100.0   30 
 3/12/19  7:30p   19.2   20.1   19.2    52    9.1  12.9    SW  6.44  46.7     W   19.2   18.5   17.7   18.9  1019.7  0.00   0.0   125     5.38    190     0.0  0.00   0.0   0.000   0.019   27.1    34    0.00   699    1    100.0   30 
 3/12/19  8:00p   18.1   19.2   18.1    53    8.3  11.3     S  5.63  41.8   WNW   18.1   17.3   16.9   15.4  1020.2  0.00   0.0    38     1.63     47     0.0  0.00   0.0   0.006   0.000   27.2    34    0.13   701    1    100.0   30 
 3/12/19  8:30p   16.8   18.1   16.7    61    9.3   8.0    SW  4.02  43.5     W   16.8   16.2   16.0   14.3  1020.8  0.00   0.0    12     0.52     28     0.0  0.00   0.0   0.031   0.000   27.2    34    0.00   669    1     97.8   30 
 3/12/19  9:00p   16.4   16.8   16.3    51    6.2  14.5   SSW  7.24  56.3     W   15.8   15.3   14.0   12.2  1021.6  0.00   0.0     0     0.00      0     0.0  0.00   0.0   0.041   0.000   27.2    34    0.08   701    1    100.0   30 
 3/12/19  9:30p   15.8   16.4   15.8    54    6.5   8.0    SW  4.02  43.5   WSW   15.8   14.9   14.5   12.6  1022.0  0.00   0.0     0     0.00      0     0.0  0.00   0.0   0.052   0.000   27.2    33    0.00   701    1    100.0   30 
 3/12/19 10:00p   15.3   15.8   15.3    63    8.3   9.7   WSW  4.83  48.3   WSW   15.0   14.7   14.1   12.2  1022.5  0.00   0.0     0     0.00      0     0.0  0.00   0.0   0.064   0.000   27.2    33    0.08   701    1    100.0   30 
 3/12/19 10:30p   15.1   15.3   15.0    65    8.5   6.4    SW  3.22  41.8     W   15.1   14.5   14.3   12.4  1022.9  0.00   0.0     0     0.00      0     0.0  0.00   0.0   0.068   0.000   27.2    33    0.00   700    1    100.0   30 
 3/12/19 11:00p   14.8   15.1   14.8    66    8.5   4.8    SW  2.41  62.8     S   14.8   14.3   14.3   12.4  1022.8  0.00   0.0     0     0.00      0     0.0  0.00   0.0   0.073   0.000   27.2    33    0.05   702    1    100.0   30 
 3/12/19 11:30p   14.7   14.8   14.7    63    7.7   4.8   WSW  2.41  29.0    SW   14.7   14.1   14.1   12.2  1022.9  0.00   0.0     0     0.00      0     0.0  0.00   0.0   0.075   0.000   27.2    33    0.00   703    1    100.0   30 
 4/12/19 12:00a   14.3   14.7   14.3    64    7.6   6.4   WSW  3.22  30.6   WSW   14.3   13.7   13.4   11.5  1022.8  0.00   0.0     0     0.00      0     0.0  0.00   0.0   0.083   0.000   27.2    32    0.05   702    1    100.0   30 
 4/12/19 12:30a   13.9   14.3   13.9    66    7.7   6.4   WSW  3.22  45.1   WSW   13.9   13.4   13.1   11.2  1022.5  0.00   0.0     0     0.00      0     0.0  0.00   0.0   0.091   0.000   27.2    32    0.00   700    1    100.0   30 
 4/12/19  1:00a   13.3   13.9   13.3    68    7.5   0.0    SW  0.00  20.9   WSW   13.3   12.8   12.8   10.9  1022.6  0.00   0.0     0     0.00      0     0.0  0.00   0.0   0.104   0.000   27.2    32    0.03   680    1     99.4   30 
 4/12/19  1:30a   13.2   13.4   13.2    69    7.7   0.0   WSW  0.00  24.1   WSW   13.2   12.8   12.8   10.9  1022.6  0.00   0.0     0     0.00      0     0.0  0.00   0.0   0.106   0.000   27.2    32    0.00   702    1    100.0   30 
 4/12/19  2:00a   13.1   13.2   13.1    69    7.5   1.6   WSW  0.80  19.3   WSW   13.1   12.7   12.7   10.8  1022.5  0.00   0.0     0     0.00      0     0.0  0.00   0.0   0.109   0.000   27.2    32    0.03   678    1     99.1   30 
 4/12/19  2:30a   13.0   13.1   13.0    70    7.7   1.6   WSW  0.80  24.1   WSW   13.0   12.6   12.6   10.7  1022.4  0.00   0.0     0     0.00      0     0.0  0.00   0.0   0.111   0.000   27.1    32    0.00   701    1    100.0   30 
 4/12/19  3:00a   13.2   13.2   13.0    69    7.6   4.8   WSW  2.41  25.7   WSW   13.2   12.7   12.6   10.7  1022.2  0.00   0.0     0     0.00      0     0.0  0.00   0.0   0.108   0.000   27.1    32    0.03   701    1    100.0   30 
 4/12/19  3:30a   13.1   13.2   13.1    69    7.5   3.2    SW  1.61  22.5     N   13.1   12.6   12.6   10.7  1022.0  0.00   0.0     0     0.00      0     0.0  0.00   0.0   0.110   0.000   27.2    32    0.00   701    1    100.0   30 
 4/12/19  4:00a   13.0   13.1   12.9    69    7.4   3.2     W  1.61  30.6     W   13.0   12.6   12.6   10.7  1022.2  0.00   0.0     0     0.00      0     0.0  0.00   0.0   0.111   0.000   27.1    32    0.03   700    1    100.0   30 
 4/12/19  4:30a   12.9   13.0   12.9    70    7.5   8.0   WSW  4.02  40.2   WSW   12.4   12.4   11.8    9.9  1022.4  0.00   0.0     0     0.00      0     0.0  0.00   0.0   0.113   0.000   27.1    32    0.00   701    1    100.0   30 
 4/12/19  5:00a   12.8   12.9   12.8    71    7.7   4.8   WSW  2.41  25.7     W   12.8   12.4   12.3   10.4  1022.6  0.00   0.0     0     0.00      0     0.0  0.00   0.0   0.115   0.000   27.2    31    0.03   701    1    100.0   30 
 4/12/19  5:30a   12.7   12.8   12.7    71    7.6   3.2   WSW  1.61  24.1   WSW   12.7   12.3   12.3   10.4  1022.7  0.00   0.0     0     0.00      0     0.0  0.00   0.0   0.117   0.000   27.2    31    0.00   700    1    100.0   30 
 4/12/19  6:00a   12.7   12.7   12.7    71    7.5   3.2   WSW  1.61  32.2     W   12.7   12.3   12.3   10.4  1023.0  0.00   0.0     1     0.04      5     0.0  0.00   0.0   0.118   0.000   27.2    31    0.03   701    1    100.0   30 
 4/12/19  6:30a   12.6   12.7   12.6    74    8.0  11.3    SW  5.63  38.6   WSW   11.5   12.2   11.1    9.4  1023.7  0.00   0.0    12     0.52     19     0.0  0.00   0.0   0.120   0.000   27.2    31    0.00   703    1    100.0   30 
 4/12/19  7:00a   12.6   12.6   12.4    76    8.4   3.2    SW  1.61  30.6    SW   12.6   12.3   12.3   11.0  1024.0  0.00   0.0    49     2.11     69     0.0  0.00   0.0   0.120   0.000   27.2    31    0.05   701    1    100.0   30 
 4/12/19  7:30a   12.4   12.6   12.3    77    8.5   8.0     W  4.02  41.8     W   11.8   12.2   11.5   12.3  1024.3  0.00   0.0    85     3.66    188     0.0  0.00   0.0   0.124   0.000   27.2    31    0.00   701    1    100.0   30 
 4/12/19  8:00a   12.9   12.9   12.3    74    8.4   6.4     W  3.22  30.6   WSW   12.8   12.6   12.2   14.8  1024.5  0.00   0.0   165     7.10    257     0.0  0.00   0.0   0.112   0.000   27.3    31    0.08   697    1    100.0   30 
 4/12/19  8:30a   13.3   13.4   12.9    74    8.7   6.4   WSW  3.22  38.6   WSW   13.2   12.9   12.6   15.5  1025.0  0.00   0.0   201     8.64    297     0.6  0.13   1.2   0.105   0.000   27.1    31    0.00   700    1    100.0   30 
 4/12/19  9:00a   14.2   14.2   13.2    69    8.6   8.0    SW  4.02  43.5     W   13.9   13.8   13.3   17.7  1024.9  0.00   0.0   333    14.32    663     1.3  0.28   2.1   0.086   0.000   27.0    32    0.15   702    1    100.0   30 
 4/12/19  9:30a   14.3   14.3   14.1    67    8.3   9.7   WSW  4.83  38.6    SW   13.9   13.8   13.2   15.7  1024.8  0.00   0.0   223     9.59    260     1.1  0.24   1.4   0.083   0.000   26.9    32    0.00   701    1    100.0   30 
 4/12/19 10:00a   15.3   15.6   14.3    62    8.0   9.7    SW  4.83  41.8     W   15.0   14.6   14.0   18.0  1024.6  0.00   0.0   357    15.35    645     2.1  0.45   4.1   0.064   0.000   26.9    32    0.00   703    1    100.0   30 
 4/12/19 10:30a   15.8   15.9   15.1    59    7.8  11.3    SW  5.63  48.3     W   15.4   15.1   14.3   18.2  1024.6  0.00   0.0   380    16.34    533     2.7  0.58   4.4   0.053   0.000   27.2    33    0.20   701    1    100.0   30 
 4/12/19 11:00a   16.1   16.6   15.8    59    8.1  11.3     W  5.63  38.6   WNW   15.8   15.4   14.7   17.5  1024.6  0.00   0.0   299    12.86    622     2.6  0.56   6.2   0.046   0.000   27.3    33    0.25   701    1    100.0   30 
 4/12/19 11:30a   16.7   16.7   16.0    57    8.2  12.9    SW  6.44  38.6   WSW   16.4   15.9   14.9   17.9  1024.5  0.00   0.0   344    14.79    543     3.4  0.73   8.2   0.034   0.000   27.2    33    0.00   699    1    100.0   30 
 4/12/19 12:00p   17.1   17.2   16.7    55    8.0   9.7     W  4.83  38.6   WSW   17.1   16.3   15.9   19.7  1024.4  0.00   0.0   407    17.50    591     3.4  0.73   4.8   0.025   0.000   27.2    33    0.28   701    1    100.0   30 
 4/12/19 12:30p   18.0   18.0   17.1    53    8.3   9.7   WNW  4.83  38.6   WSW   18.0   17.2   16.9   21.1  1024.3  0.00   0.0   451    19.40    531     4.2  0.90   7.6   0.007   0.000   27.2    33    0.00   701    1    100.0   30 
 4/12/19  1:00p   19.7   19.7   17.9    47    8.0  11.3   WSW  5.63  38.6   WSW   19.7   18.7   18.5   24.3  1024.1  0.00   0.0   884    38.02   1371     7.4  1.59   9.9   0.000   0.028   27.3    33    0.46   699    1    100.0   30 
 4/12/19  1:30p   19.8   19.8   19.2    46    7.9   9.7     W  4.83  37.0     W   19.8   18.9   18.8   24.9  1023.7  0.00   0.0   744    32.00   1420     7.3  1.56   9.8   0.000   0.031   27.4    35    0.00   700    1    100.0   30 
 4/12/19  2:00p   20.1   20.1   19.7    45    7.7  11.3     W  5.63  40.2    SW   20.1   19.1   18.8   23.9  1023.2  0.00   0.0   577    24.81   1343     5.9  1.26   9.3   0.000   0.036   27.3    35    0.51   700    1    100.0   30 
 4/12/19  2:30p   21.2   21.6   20.1    41    7.4  11.3   WSW  5.63  46.7     W   21.2   19.8   19.7   25.1  1023.0  0.00   0.0   996    42.83   1303     7.1  1.52   9.0   0.000   0.060   27.3    35    0.00   700    1    100.0   30 
 4/12/19  3:00p   21.4   21.8   21.2    41    7.6  11.3     W  5.63  45.1   WSW   21.4   20.1   20.0   25.4  1023.1  0.00   0.0   878    37.76   1230     6.3  1.35   8.1   0.000   0.065   27.3    35    0.61   701    1    100.0   30 
 4/12/19  3:30p   21.9   22.3   21.4    40    7.7  12.9    SW  6.44  38.6    SW   21.9   20.7   20.1   25.6  1022.8  0.00   0.0   919    39.52   1104     5.8  1.24   7.1   0.000   0.074   27.4    34    0.00   702    1    100.0   30 
 4/12/19  4:00p   21.9   22.1   21.8    40    7.7  12.9     W  6.44  48.3   WSW   21.9   20.7   20.1   25.6  1022.7  0.00   0.0   720    30.96   1060     4.4  0.94   6.1   0.000   0.074   27.3    34    0.56   701    1    100.0   30 
 4/12/19  4:30p   22.8   22.8   21.9    36    7.0  11.3     W  5.63  53.1   WSW   22.8   21.9   21.9   27.8  1022.3  0.00   0.0   779    33.50    946     4.0  0.86   4.9   0.000   0.094   27.4    33    0.00   702    1    100.0   30 
 4/12/19  5:00p   23.4   23.4   22.8    36    7.5   9.7   WSW  4.83  38.6   WSW   23.4   22.8   22.8   29.0  1022.1  0.00   0.0   706    30.36    782     3.3  0.71   3.9   0.000   0.106   27.3    34    0.00   702    1    100.0   30 
 4/12/19  5:30p   23.3   23.4   23.2    36    7.4  12.9     W  6.44  40.2   WSW   23.3   22.6   22.1   27.5  1021.8  0.00   0.0   579    24.90    642     2.4  0.51   2.8   0.000   0.103   27.3    35    0.51   698    1    100.0   30 
 4/12/19  6:00p   23.7   23.7   23.3    36    7.7   9.7   WSW  4.83  41.8    SW   23.7   23.0   23.0   28.5  1021.6  0.00   0.0   476    20.47    527     1.6  0.34   2.0   0.000   0.111   27.3    35    0.43   698    1    100.0   30 
 4/12/19  6:30p   23.1   23.8   23.1    41    9.1   8.0     W  4.02  43.5     W   23.1   22.6   22.6   27.6  1021.6  0.00   0.0   371    15.96    434     1.0  0.21   1.3   0.000   0.100   27.3    34    0.00   699    1    100.0   30 
 4/12/19  7:00p   22.5   23.1   22.5    44    9.6   3.2     S  1.61  22.5   SSW   22.5   21.8   21.8   25.6  1021.9  0.00   0.0   254    10.92    308     0.5  0.11   0.8   0.000   0.087   27.2    34    0.25   701    1    100.0   30 
 4/12/19  7:30p   21.2   22.5   21.2    50   10.4   3.2    SW  1.61  22.5    SW   21.2   20.3   20.3   22.1  1022.1  0.00   0.0   140     6.02    195     0.0  0.00   0.0   0.000   0.060   27.2    34    0.00   676    1     98.8   30 
 4/12/19  8:00p   19.2   21.2   19.2    57   10.5   1.6   SSW  0.80  22.5   SSW   19.2   18.8   18.8   17.3  1022.3  0.00   0.0    23     0.99     77     0.0  0.00   0.0   0.000   0.019   27.2    34    0.08   701    1    100.0   30 
 4/12/19  8:30p   18.3   19.3   18.3    61   10.6   0.0   SSW  0.00  12.9   SSW   18.3   17.9   17.9   16.2  1022.4  0.00   0.0     7     0.30     14     0.0  0.00   0.0   0.001   0.000   27.2    34    0.00   701    1    100.0   30 
 4/12/19  9:00p   17.1   18.3   17.1    66   10.7   0.0   ---  0.00   0.0   ---   17.1   16.7   16.7   15.0  1023.0  0.00   0.0     0     0.00      0     0.0  0.00   0.0   0.027   0.000   27.2    34    0.00   700    1    100.0   30 
 4/12/19  9:30p   16.6   17.1   16.6    69   10.8   0.0   SSW  0.00   6.4   SSW   16.6   16.2   16.2   14.5  1023.2  0.00   0.0     0     0.00      0     0.0  0.00   0.0   0.037   0.000   27.3    34    0.00   702    1    100.0   30 
 4/12/19 10:00p   15.8   16.6   15.8    74   11.2   0.0   SSW  0.00   9.7   SSW   15.8   15.6   15.6   13.9  1023.4  0.00   0.0     0     0.00      0     0.0  0.00   0.0   0.052   0.000   27.2    34    0.03   702    1    100.0   30 
 4/12/19 10:30p   15.2   15.8   15.2    77   11.2   0.0   ---  0.00   0.0   ---   15.2   15.1   15.1   13.3  1023.7  0.00   0.0     0     0.00      0     0.0  0.00   0.0   0.065   0.000   27.2    34    0.00   701    1    100.0   30 
 4/12/19 11:00p   15.1   15.2   15.1    78   11.2   1.6     S  0.80  25.7     S   15.1   14.9   14.9   13.2  1023.8  0.00   0.0     0     0.00      0     0.0  0.00   0.0   0.068   0.000   27.2    34    0.03   698    1    100.0   30 
 4/12/19 11:30p   14.8   15.1   14.8    77   10.8   1.6     S  0.80  20.9     S   14.8   14.6   14.6   12.9  1023.9  0.00   0.0     0     0.00      0     0.0  0.00   0.0   0.073   0.000   27.2    35    0.00   700    1    100.0   30 
 5/12/19 12:00a   14.4   14.8   14.4    77   10.5   0.0   ---  0.00   0.0   ---   14.4   14.2   14.2   12.4  1023.6  0.00   0.0     0     0.00      0     0.0  0.00   0.0   0.081   0.000   27.2    35    0.03   698    1    100.0   30 
 5/12/19 12:30a   13.9   14.4   13.9    79   10.4   0.0   ---  0.00   0.0   ---   13.9   13.8   13.8   12.0  1023.4  0.00   0.0     0     0.00      0     0.0  0.00   0.0   0.091   0.000   27.2    34    0.00   701    1    100.0   30 
 5/12/19  1:00a   14.3   14.3   13.9    77   10.3   0.0   ---  0.00   0.0   ---   14.3   14.1   14.1   12.3  1023.0  0.00   0.0     0     0.00      0     0.0  0.00   0.0   0.084   0.000   27.2    34    0.03   701    1    100.0   30 
 5/12/19  1:30a   14.2   14.3   14.2    77   10.2   0.0   ---  0.00   0.0   ---   14.2   13.9   13.9   12.2  1022.6  0.00   0.0     0     0.00      0     0.0  0.00   0.0   0.087   0.000   27.2    34    0.00   701    1    100.0   30 
 5/12/19  2:00a   13.5   14.2   13.5    78    9.7   0.0   ---  0.00   0.0   ---   13.5   13.3   13.3   11.5  1021.9  0.00   0.0     0     0.00      0     0.0  0.00   0.0   0.101   0.000   27.2    34    0.03   700    1    100.0   30 
 5/12/19  2:30a   12.3   13.5   12.3    83    9.5   0.0   ---  0.00   0.0   ---   12.3   12.2   12.2   10.4  1021.6  0.00   0.0     0     0.00      0     0.0  0.00   0.0   0.126   0.000   27.1    34    0.00   701    1    100.0   30 
 5/12/19  3:00a   11.3   12.3   11.3    86    9.1   0.0   ---  0.00   0.0   ---   11.3   11.3   11.3    9.5  1021.3  0.00   0.0     0     0.00      0     0.0  0.00   0.0   0.146   0.000   27.2    34    0.03   700    1    100.0   30 
 5/12/19  3:30a   10.6   11.3   10.6    87    8.5   0.0   ---  0.00   0.0   ---   10.6   10.7   10.7    8.8  1021.2  0.00   0.0     0     0.00      0     0.0  0.00   0.0   0.161   0.000   27.2    34    0.00   700    1    100.0   30 
 5/12/19  4:00a   10.1   10.6   10.0    90    8.5   0.0   ---  0.00   0.0   ---   10.1   10.2   10.2    8.4  1021.0  0.00   0.0     0     0.00      0     0.0  0.00   0.0   0.172   0.000   27.2    34    0.00   702    1    100.0   30 
 5/12/19  4:30a   10.3   10.3   10.1    91    8.9   0.0   ---  0.00   0.0   ---   10.3   10.4   10.4    8.6  1021.0  0.00   0.0     0     0.00      0     0.0  0.00   0.0   0.168   0.000   27.1    33    0.00   700    1    100.0   30 
 5/12/19  5:00a   10.7   10.7   10.3    92    9.5   0.0   ---  0.00   0.0   ---   10.7   10.9   10.9    9.1  1021.1  0.00   0.0     0     0.00      0     0.0  0.00   0.0   0.159   0.000   27.1    33    0.00   701    1    100.0   30 
 5/12/19  5:30a   10.9   10.9   10.7    92    9.7   0.0   ---  0.00   0.0   ---   10.9   11.1   11.1    9.3  1021.4  0.00   0.0     0     0.00      0     0.0  0.00   0.0   0.154   0.000   27.1    33    0.00   702    1    100.0   30 
 5/12/19  6:00a   11.5   11.5   10.9    91   10.1   1.6   SSW  0.80  22.5   SSW   11.5   11.6   11.6    9.8  1021.7  0.00   0.0     0     0.00      5     0.0  0.00   0.0   0.142   0.000   27.1    33    0.00   700    1    100.0   30 
 5/12/19  6:30a   12.4   12.4   11.5    81    9.2   1.6   SSW  0.80  22.5    NW   12.4   12.2   12.2   10.6  1022.1  0.00   0.0    20     0.86     42     0.0  0.00   0.0   0.124   0.000   27.1    33    0.00   702    1    100.0   30 
 5/12/19  7:00a   12.3   12.4   12.3    78    8.6   1.6    SW  0.80  19.3   WSW   12.3   12.1   12.1   11.0  1022.4  0.00   0.0    60     2.58     84     0.0  0.00   0.0   0.125   0.000   27.1    33    0.00   700    1    100.0   30 
 5/12/19  7:30a   12.7   12.7   12.3    76    8.5   1.6   WSW  0.80  24.1   WSW   12.7   12.4   12.4   14.2  1022.6  0.00   0.0   145     6.24    258     0.0  0.00   0.0   0.118   0.000   27.1    33    0.03   678    1     99.1   30 
 5/12/19  8:00a   13.3   13.3   12.7    73    8.5   6.4   SSW  3.22  27.4   WSW   13.2   12.9   12.6   15.8  1022.6  0.00   0.0   230     9.89    373     0.4  0.09   0.8   0.105   0.000   27.2    33    0.10   702    1    100.0   30 
 5/12/19  8:30a   14.3   14.3   13.3    69    8.7  12.9   WSW  6.44  43.5    SW   13.5   13.9   12.6   18.4  1022.7  0.00   0.0   430    18.49    519     1.1  0.24   1.4   0.083   0.000   26.8    33    0.00   699    1    100.0   30 
 5/12/19  9:00a   14.7   14.7   14.3    67    8.6   8.0   NNW  4.02  41.8    SW   14.5   14.2   13.7   18.3  1022.5  0.00   0.0   349    15.01    657     1.3  0.28   1.6   0.076   0.000   26.8    34    0.23   700    1    100.0   30 
 5/12/19  9:30a   15.2   15.2   14.7    66    8.9   4.8     W  2.41  32.2     N   15.2   14.7   14.7   18.1  1022.4  0.00   0.0   276    11.87    369     1.6  0.34   2.4   0.065   0.000   26.8    34    0.00   700    1    100.0   30 
 5/12/19 10:00a   16.4   16.4   15.3    63    9.4   6.4   WSW  3.22  33.8     W   16.4   15.9   15.8   19.8  1022.1  0.00   0.0   359    15.44    594     2.3  0.49   3.7   0.039   0.000   26.9    34    0.23   701    1    100.0   30 
 5/12/19 10:30a   17.3   17.3   16.4    62   10.0   6.4    NW  3.22  33.8   WNW   17.3   16.8   16.7   20.9  1021.7  0.00   0.0   397    17.07    527     3.0  0.64   5.3   0.021   0.000   27.0    34    0.00   700    1    100.0   30 
 5/12/19 11:00a   19.2   19.2   17.4    57   10.5  14.5   WSW  7.24  41.8   WSW   19.2   18.8   17.7   23.6  1021.6  0.00   0.0   899    38.66   1202     5.1  1.09   6.7   0.000   0.019   27.1    34    0.38   701    1    100.0   30 
 5/12/19 11:30a   20.4   20.4   19.0    54   10.8  12.9     W  6.44  40.2    NW   20.4   19.8   19.1   24.6  1021.3  0.00   0.0   646    27.78   1215     5.2  1.11   7.3   0.000   0.043   27.2    35    0.00   702    1    100.0   30 
 5/12/19 12:00p   20.4   20.8   20.4    53   10.5  11.3     W  5.63  43.5     N   20.4   19.8   19.6   25.3  1020.9  0.00   0.0   667    28.68   1246     5.5  1.18   7.9   0.000   0.043   27.2    35    0.51   702    1    100.0   30 
 5/12/19 12:30p   22.1   22.1   20.3    49   10.8  11.3     W  5.63  43.5    SW   22.1   21.4   21.4   27.2  1020.7  0.00   0.0   884    38.02   1236     6.6  1.41   8.8   0.000   0.078   27.3    36    0.00   697    1    100.0   30 
 5/12/19  1:00p   21.8   22.1   21.3    49   10.6  12.9     W  6.44  41.8     W   21.8   21.1   20.6   26.1  1020.5  0.00   0.0   672    28.90    970     5.8  1.24   8.9   0.000   0.073   27.3    37    0.56   669    1     97.8   30 
 5/12/19  1:30p   21.8   21.8   21.4    49   10.6  11.3   WSW  5.63  51.5   NNW   21.8   21.0   21.0   24.7  1020.3  0.00   0.0   399    17.16    545     3.6  0.77   4.8   0.000   0.072   27.4    37    0.00   702    1    100.0   30 
 5/12/19  2:00p   22.3   22.3   21.6    47   10.4   8.0    SW  4.02  35.4   SSE   22.3   21.6   21.6   25.2  1020.1  0.00   0.0   371    15.96    763     4.0  0.86   9.0   0.000   0.082   27.4    37    0.33   700    1    100.0   30 
 5/12/19  2:30p   23.0   23.5   22.3    46   10.8  11.3    SW  5.63  46.7   WSW   23.0   22.6   22.6   28.6  1019.8  0.00   0.0   718    30.88   1195     6.2  1.33   8.7   0.000   0.097   27.6    37    0.00   700    1    100.0   30 
 5/12/19  3:00p   24.7   24.7   23.0    44   11.6  12.9   WSW  6.44  41.8   WSW   24.7   24.4   24.0   29.5  1019.4  0.00   0.0   963    41.41   1167     6.7  1.44   8.0   0.000   0.133   27.8    39    0.61   703    1    100.0   30 
 5/12/19  3:30p   24.1   24.8   23.9    43   10.7  14.5    SW  7.24  51.5   WNW   24.1   23.8   23.1   28.6  1019.1  0.00   0.0   765    32.90    939     5.3  1.14   6.3   0.000   0.120   28.1    39    0.00   701    1    100.0   30 
 5/12/19  4:00p   24.6   24.7   24.1    40   10.1  14.5    SW  7.24  45.1   WSW   24.6   24.1   23.4   28.6  1019.2  0.00   0.0   818    35.18    939     4.9  1.05   5.7   0.000   0.131   28.2    37    0.61   703    1    100.0   30 
 5/12/19  4:30p   23.9   24.6   23.9    40    9.5  17.7   WSW  8.85  56.3   WNW   23.9   23.5   22.4   27.3  1019.4  0.00   0.0   692    29.76    858     3.7  0.79   4.4   0.000   0.117   28.4    36    0.00   698    1    100.0   30 
 5/12/19  5:00p   22.3   23.9   22.3    50   11.4  14.5     S  7.24  41.8     S   22.3   21.8   20.9   25.8  1019.5  0.00   0.0   499    21.46    814     2.7  0.58   3.6   0.000   0.082   28.5    36    0.48   701    1    100.0   30 
 5/12/19  5:30p   21.3   22.3   21.3    54   11.6  12.9     S  6.44  45.1   SSE   21.3   20.6   20.0   22.7  1019.8  0.00   0.0   240    10.32    629     1.3  0.28   2.4   0.000   0.061   28.4    36    0.00   700    1    100.0   30 
 5/12/19  6:00p   21.8   21.8   21.2    52   11.5   6.4    SW  3.22  38.6   SSE   21.8   21.2   21.2   24.4  1019.9  0.00   0.0   232     9.98    589     1.0  0.21   1.5   0.000   0.073   28.1    35    0.23   701    1    100.0   30 
 5/12/19  6:30p   21.4   21.8   21.3    53   11.5   6.4   SSE  3.22  37.0    SW   21.4   20.7   20.7   23.1  1019.8  0.00   0.0   167     7.18    431     0.8  0.17   1.2   0.000   0.065   27.7    36    0.00   700    1    100.0   30 
 5/12/19  7:00p   20.7   21.6   20.7    57   11.8   8.0     S  4.02  30.6   WSW   20.7   20.2   20.2   23.6  1020.1  0.00   0.0   213     9.16    329     0.3  0.06   0.6   0.000   0.049   27.4    36    0.18   701    1    100.0   30 
 5/12/19  7:30p   19.8   20.7   19.8    61   12.0   9.7     S  4.83  32.2     S   19.8   19.6   19.5   21.2  1020.5  0.00   0.0   127     5.46    202     0.0  0.00   0.0   0.000   0.030   27.4    36    0.00   703    1    100.0   30 
 5/12/19  8:00p   18.8   19.8   18.8    64   11.8   6.4   SSW  3.22  27.4   SSW   18.8   18.6   18.6   17.3  1021.0  0.00   0.0    33     1.42     84     0.0  0.00   0.0   0.000   0.009   27.4    36    0.00   701    1    100.0   30 
 5/12/19  8:30p   17.7   18.8   17.7    68   11.7  11.3     S  5.63  41.8     S   17.7   17.5   17.0   15.5  1021.6  0.00   0.0    10     0.43     19     0.0  0.00   0.0   0.014   0.000   27.4    37    0.10   700    1    100.0   30 
 5/12/19  9:00p   16.9   17.7   16.9    71   11.6  14.5     S  7.24  38.6   WSW   16.4   16.7   15.4   13.8  1022.1  0.00   0.0     0     0.00      0     0.0  0.00   0.0   0.030   0.000   27.3    37    0.05   699    1    100.0   30 
 5/12/19  9:30p   16.3   16.9   16.3    72   11.3  12.9     S  6.44  38.6   WSW   15.9   16.1   15.0   13.4  1022.7  0.00   0.0     0     0.00      0     0.0  0.00   0.0   0.042   0.000   27.3    37    0.00   700    1    100.0   30 
 5/12/19 10:00p   15.9   16.3   15.9    72   10.9   3.2     S  1.61  27.4   WSW   15.9   15.7   15.7   13.9  1023.1  0.00   0.0     0     0.00      0     0.0  0.00   0.0   0.050   0.000   27.4    36    0.05   700    1    100.0   30 
 5/12/19 10:30p   15.6   15.9   15.6    71   10.4   4.8    SW  2.41  38.6   WSW   15.6   15.3   15.3   13.5  1023.2  0.00   0.0     0     0.00      0     0.0  0.00   0.0   0.057   0.000   27.3    36    0.00   702    1    100.0   30 
 5/12/19 11:00p   15.1   15.6   15.1    71    9.9   1.6    SW  0.80  22.5    SW   15.1   14.8   14.8   13.0  1023.4  0.00   0.0     0     0.00      0     0.0  0.00   0.0   0.067   0.000   27.2    36    0.03   700    1    100.0   30 
 5/12/19 11:30p   14.5   15.1   14.5    74    9.9   0.0   ---  0.00   0.0   ---   14.5   14.2   14.2   12.4  1023.4  0.00   0.0     0     0.00      0     0.0  0.00   0.0   0.080   0.000   27.3    36    0.00   699    1    100.0   30 
 6/12/19 12:00a   14.1   14.5   14.1    77   10.1   0.0   ---  0.00   0.0   ---   14.1   13.9   13.9   12.1  1023.4  0.00   0.0     0     0.00      0     0.0  0.00   0.0   0.088   0.000   27.3    36    0.03   702    1    100.0   30 
 6/12/19 12:30a   13.8   14.1   13.7    79   10.2   0.0   ---  0.00   0.0   ---   13.8   13.6   13.6   11.8  1023.3  0.00   0.0     0     0.00      0     0.0  0.00   0.0   0.095   0.000   27.3    36    0.00   701    1    100.0   30 
 6/12/19  1:00a   13.9   13.9   13.8    78   10.1   0.0   ---  0.00   0.0   ---   13.9   13.7   13.7   11.9  1023.1  0.00   0.0     0     0.00      0     0.0  0.00   0.0   0.093   0.000   27.2    36    0.03   675    1     98.7   30 
 6/12/19  1:30a   13.7   13.9   13.7    79   10.1   0.0   ---  0.00   0.0   ---   13.7   13.5   13.5   11.7  1023.0  0.00   0.0     0     0.00      0     0.0  0.00   0.0   0.097   0.000   27.2    36    0.00   700    1    100.0   30 
 6/12/19  2:00a   13.9   13.9   13.7    73    9.2   3.2   WSW  1.61  29.0    SW   13.9   13.6   13.6   11.8  1022.9  0.00   0.0     0     0.00      0     0.0  0.00   0.0   0.091   0.000   27.2    36    0.03   697    1    100.0   30 
 6/12/19  2:30a   13.8   14.0   13.8    70    8.5   4.8   WSW  2.41  35.4   WSW   13.8   13.4   13.3   11.5  1022.9  0.00   0.0     0     0.00      0     0.0  0.00   0.0   0.094   0.000   27.2    35    0.00   700    1    100.0   30 
 6/12/19  3:00a   13.6   13.8   13.6    69    8.0   3.2    SW  1.61  25.7     W   13.6   13.2   13.2   11.3  1022.5  0.00   0.0     0     0.00      0     0.0  0.00   0.0   0.098   0.000   27.3    35    0.03   700    1    100.0   30 
 6/12/19  3:30a   13.4   13.6   13.4    68    7.7   3.2    SW  1.61  30.6    SW   13.4   12.9   12.9   11.1  1022.4  0.00   0.0     0     0.00      0     0.0  0.00   0.0   0.102   0.000   27.2    35    0.00   702    1    100.0   30 
 6/12/19  4:00a   13.3   13.4   13.3    67    7.3   6.4   WSW  3.22  37.0   WSW   13.2   12.8   12.4   10.6  1022.4  0.00   0.0     0     0.00      0     0.0  0.00   0.0   0.105   0.000   27.2    34    0.03   697    1    100.0   30 
 6/12/19  4:30a   13.2   13.3   13.2    67    7.2   4.8    SW  2.41  27.4    SW   13.2   12.7   12.6   10.7  1022.3  0.00   0.0     0     0.00      0     0.0  0.00   0.0   0.106   0.000   27.2    34    0.00   697    1    100.0   30 
 6/12/19  5:00a   13.1   13.3   13.1    68    7.3   3.2     W  1.61  29.0   WSW   13.1   12.6   12.6   10.7  1022.4  0.00   0.0     0     0.00      0     0.0  0.00   0.0   0.109   0.000   27.1    34    0.03   699    1    100.0   30 
 6/12/19  5:30a   13.0   13.1   12.9    69    7.4   3.2   WSW  1.61  25.7    SW   13.0   12.6   12.6   10.7  1022.9  0.00   0.0     0     0.00      0     0.0  0.00   0.0   0.111   0.000   27.2    34    0.00   701    1    100.0   30 
 6/12/19  6:00a   13.1   13.1   12.9    70    7.7   1.6   WSW  0.80  22.5   WSW   13.1   12.6   12.6   10.7  1023.2  0.00   0.0     1     0.04      5     0.0  0.00   0.0   0.110   0.000   27.3    34    0.03   701    1    100.0   30 
 6/12/19  6:30a   13.1   13.1   13.1    70    7.8   3.2    SW  1.61  29.0     S   13.1   12.7   12.7   10.9  1023.5  0.00   0.0    11     0.47     18     0.0  0.00   0.0   0.109   0.000   27.2    33    0.00   700    1    100.0   30 
 6/12/19  7:00a   13.2   13.2   13.1    70    7.8   0.0    SW  0.00  25.7     W   13.2   12.7   12.7   11.2  1023.7  0.00   0.0    29     1.25     42     0.0  0.00   0.0   0.108   0.000   27.1    33    0.03   700    1    100.0   30 
 6/12/19  7:30a   13.2   13.2   13.2    70    7.9   1.6     W  0.80  17.7     W   13.2   12.8   12.8   12.9  1023.9  0.00   0.0    52     2.24     69     0.0  0.00   0.0   0.106   0.000   27.1    33    0.00   677    1     99.0   30 
 6/12/19  8:00a   13.7   13.7   13.2    69    8.1   1.6     W  0.80  25.7     W   13.7   13.2   13.2   14.4  1024.3  0.00   0.0   101     4.34    130     0.0  0.00   0.0   0.097   0.000   27.1    33    0.05   701    1    100.0   30 
 6/12/19  8:30a   14.4   14.5   13.7    67    8.4   4.8     W  2.41  29.0   WSW   14.4   13.9   13.9   17.7  1024.2  0.00   0.0   257    11.05    336     0.8  0.17   1.1   0.081   0.000   27.0    33    0.00   702    1    100.0   30 
 6/12/19  9:00a   14.7   14.7   14.4    66    8.4   4.8    SW  2.41  22.5     S   14.7   14.2   14.2   17.9  1024.0  0.00   0.0   281    12.08    492     1.0  0.21   1.6   0.075   0.000   27.0    33    0.15   701    1    100.0   30 
 6/12/19  9:30a   15.0   15.0   14.7    67    8.9   6.4   WSW  3.22  38.6   WNW   15.0   14.5   14.3   17.4  1024.6  0.00   0.0   264    11.35    366     1.2  0.26   1.8   0.069   0.000   27.0    33    0.00   701    1    100.0   30 
 6/12/19 10:00a   15.9   16.0   15.0    60    8.2   6.4     W  3.22  32.2     W   15.9   15.3   15.1   19.4  1024.5  0.00   0.0   392    16.86    503     2.1  0.45   3.7   0.050   0.000   27.0    34    0.20   699    1    100.0   30 
 6/12/19 10:30a   16.6   16.6   15.9    60    8.8   9.7    SW  4.83  45.1   WNW   16.5   15.9   15.4   19.3  1025.0  0.00   0.0   380    16.34   1281     2.5  0.54   4.6   0.037   0.000   27.2    33    0.00   698    1    100.0   30 
 6/12/19 11:00a   17.1   17.1   16.6    58    8.8   6.4    SW  3.22  35.4   SSE   17.1   16.4   16.3   20.6  1024.5  0.00   0.0   433    18.62   1081     3.6  0.77   6.8   0.025   0.000   27.2    33    0.00   700    1    100.0   30 
 6/12/19 11:30a   17.1   17.5   16.9    58    8.7   8.0    SW  4.02  48.3   WSW   17.1   16.4   16.1   20.9  1024.5  0.00   0.0   502    21.59   1338     3.8  0.81   7.5   0.027   0.000   27.2    33    0.33   703    1    100.0   30 
 6/12/19 12:00p   17.7   17.8   17.1    52    7.7  11.3    SW  5.63  35.4    SW   17.7   16.8   16.3   20.3  1024.7  0.00   0.0   432    18.58   1230     3.9  0.84   8.2   0.014   0.000   27.3    33    0.36   699    1    100.0   30 
 6/12/19 12:30p   18.4   18.5   17.4    50    7.8   9.7    SW  4.83  37.0   WSW   18.4   17.5   17.2   20.8  1024.5  0.00   0.0   380    16.34    464     4.2  0.90   9.1   0.000   0.002   27.2    33    0.00   700    1    100.0   30 
 6/12/19  1:00p   17.9   18.9   17.9    54    8.5  12.9    SW  6.44  46.7   WNW   17.9   17.2   16.2   19.7  1024.7  0.00   0.0   388    16.69   1334     3.5  0.75   9.0   0.008   0.000   27.3    33    0.36   674    1     98.5   30 
 6/12/19  1:30p   19.0   19.0   17.7    53    9.2   6.4   SSW  3.22  29.0     S   19.0   18.3   18.3   22.1  1024.5  0.00   0.0   394    16.94   1092     4.3  0.92   9.2   0.000   0.014   27.3    34    0.00   699    1    100.0   30 
 6/12/19  2:00p   19.7   19.9   19.0    47    8.1  11.3    SW  5.63  41.8   WSW   19.7   18.8   18.5   23.0  1024.5  0.00   0.0   492    21.16   1171     5.3  1.14   8.0   0.000   0.029   27.4    34    0.38   700    1    100.0   30 
 6/12/19  2:30p   19.6   20.3   19.3    51    9.1  12.9     S  6.44  45.1   SSE   19.6   18.8   18.1   23.3  1024.4  0.00   0.0   632    27.18   1225     5.2  1.11   7.7   0.000   0.025   27.3    34    0.00   700    1    100.0   30 
 6/12/19  3:00p   19.9   20.3   19.6    45    7.6  12.9    SW  6.44  43.5   WSW   19.9   18.9   18.2   22.4  1024.3  0.00   0.0   485    20.86   1093     4.2  0.90   7.1   0.000   0.034   27.3    34    0.46   698    1    100.0   30 
 6/12/19  3:30p   20.3   20.3   19.9    44    7.7  14.5    SW  7.24  49.9   WSW   20.3   19.2   18.2   23.1  1024.4  0.00   0.0   608    26.15    747     3.9  0.84   4.6   0.000   0.042   27.3    33    0.00   648    1     94.7   30 
 6/12/19  4:00p   19.8   20.3   19.8    50    9.1  14.5    SW  7.24  41.8    SW   19.8   19.1   18.0   21.7  1024.4  0.00   0.0   405    17.42    621     2.6  0.56   3.3   0.000   0.031   27.4    33    0.41   702    1    100.0   30 
 6/12/19  4:30p   20.1   20.3   19.5    44    7.5  12.9    SW  6.44  45.1     W   20.1   19.1   18.3   22.8  1024.5  0.00   0.0   468    20.13    816     2.7  0.58   3.9   0.000   0.037   27.3    33    0.00   702    1    100.0   30 
 6/12/19  5:00p   19.6   20.2   19.6    51    9.1   9.7   WSW  4.83  46.7   WSW   19.6   18.8   18.7   22.6  1024.5  0.00   0.0   347    14.92    399     1.8  0.39   2.1   0.000   0.025   27.3    33    0.33   702    1    100.0   30 
 6/12/19  5:30p   18.7   19.6   18.6    55    9.5  12.9     S  6.44  41.8   SSW   18.7   18.1   17.3   21.1  1024.6  0.00   0.0   331    14.23    471     1.4  0.30   1.6   0.000   0.008   27.4    33    0.00   702    1    100.0   30 
 6/12/19  6:00p   18.1   18.8   18.1    57    9.5  14.5    SW  7.24  40.2   WSW   17.9   17.5   16.3   20.0  1024.8  0.00   0.0   306    13.16    561     1.2  0.26   1.6   0.005   0.000   27.4    33    0.28   700    1    100.0   30 
 6/12/19  6:30p   18.2   18.6   17.9    59   10.0  12.9     S  6.44  41.8    SE   18.2   17.7   16.8   21.1  1025.4  0.00   0.0   347    14.92    452     0.9  0.19   1.1   0.003   0.000   27.4    33    0.00   701    1    100.0   30 
 6/12/19  7:00p   17.4   18.2   17.4    62   10.1  12.9    SW  6.44  57.9     S   17.3   17.0   16.0   19.5  1026.0  0.00   0.0   251    10.79    309     0.3  0.06   0.7   0.019   0.000   27.3    33    0.23   701    1    100.0   30 
 6/12/19  7:30p   16.6   17.4   16.6    63    9.5   9.7   SSE  4.83  48.3     S   16.5   16.1   15.6   17.1  1026.5  0.00   0.0   134     5.76    192     0.0  0.00   0.0   0.037   0.000   27.3    33    0.00   700    1    100.0   30 
 6/12/19  8:00p   15.8   16.6   15.8    65    9.3   4.8   SSW  2.41  25.7    SW   15.8   15.3   15.3   13.9  1026.8  0.00   0.0    34     1.46     84     0.0  0.00   0.0   0.052   0.000   27.4    33    0.08   703    1    100.0   30 
 6/12/19  8:30p   15.6   15.8   15.6    61    8.1   6.4     S  3.22  29.0   WSW   15.6   14.9   14.7   13.0  1027.1  0.00   0.0    11     0.47     21     0.0  0.00   0.0   0.057   0.000   27.3    33    0.00   697    1    100.0   30 
 6/12/19  9:00p   15.2   15.6   15.2    62    7.9   3.2    SW  1.61  27.4    SW   15.2   14.5   14.5   12.6  1027.5  0.00   0.0     0     0.00      0     0.0  0.00   0.0   0.066   0.000   27.2    33    0.03   702    1    100.0   30 
 6/12/19  9:30p   14.6   15.1   14.6    64    7.9   3.2    SW  1.61  30.6    SW   14.6   14.0   14.0   12.1  1027.9  0.00   0.0     0     0.00      0     0.0  0.00   0.0   0.078   0.000   27.4    33    0.00   671    1     98.1   30 
 6/12/19 10:00p   14.1   14.6   14.1    63    7.1   8.0    SW  4.02  40.2    SW   13.8   13.4   12.9   10.9  1028.7  0.00   0.0     0     0.00      0     0.0  0.00   0.0   0.089   0.000   27.4    33    0.05   700    1    100.0   30 
 6/12/19 10:30p   13.5   14.1   13.5    65    7.0   3.2    SW  1.61  33.8     W   13.5   12.9   12.9   11.0  1028.7  0.00   0.0     0     0.00      0     0.0  0.00   0.0   0.101   0.000   27.3    32    0.00   699    1    100.0   30 
 6/12/19 11:00p   13.4   13.6   13.3    65    7.0   3.2    SW  1.61  27.4   WSW   13.4   12.9   12.9   10.9  1028.8  0.00   0.0     0     0.00      0     0.0  0.00   0.0   0.102   0.000   27.2    32    0.03   701    1    100.0   30 
 6/12/19 11:30p   13.4   13.5   13.4    65    6.9   3.2   WSW  1.61  24.1   WSW   13.4   12.8   12.8   10.9  1028.8  0.00   0.0     0     0.00      0     0.0  0.00   0.0   0.103   0.000   27.3    32    0.00   700    1    100.0   30 
 7/12/19 12:00a   13.0   13.4   13.0    63    6.1   3.2   WSW  1.61  30.6   WSW   13.0   12.4   12.4   10.4  1028.6  0.00   0.0     0     0.00      0     0.0  0.00   0.0   0.111   0.000   27.3    32    0.03   699    1    100.0   30 
 7/12/19 12:30a   12.5   13.0   12.5    66    6.3   1.6   SSW  0.80  22.5    SW   12.5   12.0   12.0   10.1  1028.3  0.00   0.0     0     0.00      0     0.0  0.00   0.0   0.122   0.000   27.2    32    0.00   699    1    100.0   30 
 7/12/19  1:00a   12.3   12.5   12.1    70    7.0   0.0    SW  0.00  24.1   WSW   12.3   11.9   11.9   10.0  1028.6  0.00   0.0     0     0.00      0     0.0  0.00   0.0   0.125   0.000   27.2    32    0.03   701    1    100.0   30 
 7/12/19  1:30a   12.4   12.6   12.4    69    6.9   3.2    SW  1.61  25.7     W   12.4   12.0   12.0   10.1  1028.7  0.00   0.0     0     0.00      0     0.0  0.00   0.0   0.123   0.000   27.3    31    0.00   701    1    100.0   30 
 7/12/19  2:00a   11.9   12.4   11.9    71    6.8   0.0     W  0.00  17.7     W   11.9   11.6   11.6    9.6  1028.8  0.00   0.0     0     0.00      0     0.0  0.00   0.0   0.133   0.000   27.3    31    0.03   701    1    100.0   30 
 7/12/19  2:30a   11.5   11.9   11.5    74    7.0   1.6   WSW  0.80  25.7    SW   11.5   11.2   11.2    9.3  1028.3  0.00   0.0     0     0.00      0     0.0  0.00   0.0   0.142   0.000   27.3    31    0.00   701    1    100.0   30 
 7/12/19  3:00a   11.0   11.5   11.0    75    6.7   0.0   ---  0.00   0.0   ---   11.0   10.8   10.8    8.8  1028.3  0.00   0.0     0     0.00      0     0.0  0.00   0.0   0.153   0.000   27.2    31    0.03   702    1    100.0   30 
 7/12/19  3:30a   10.4   11.0   10.4    77    6.6   0.0   ---  0.00   0.0   ---   10.4   10.3   10.3    8.4  1028.3  0.00   0.0     0     0.00      0     0.0  0.00   0.0   0.164   0.000   27.1    31    0.00   702    1    100.0   30 
 7/12/19  4:00a   10.4   10.4   10.3    80    7.1   0.0   ---  0.00   0.0   ---   10.4   10.4   10.4    8.4  1028.3  0.00   0.0     0     0.00      0     0.0  0.00   0.0   0.164   0.000   27.1    31    0.00   702    1    100.0   30 
 7/12/19  4:30a   10.3   10.5   10.3    79    6.8   0.0   ---  0.00   0.0   ---   10.3   10.3   10.3    8.3  1028.3  0.00   0.0     0     0.00      0     0.0  0.00   0.0   0.167   0.000   27.0    31    0.03   700    1    100.0   30 
 7/12/19  5:00a    9.8   10.3    9.8    79    6.4   0.0   ---  0.00   0.0   ---    9.8    9.8    9.8    7.8  1028.5  0.00   0.0     0     0.00      0     0.0  0.00   0.0   0.177   0.000   26.9    31    0.03   702    1    100.0   30 
 7/12/19  5:30a    9.2    9.8    9.2    81    6.1   0.0   ---  0.00   0.0   ---    9.2    9.1    9.1    7.1  1028.9  0.00   0.0     0     0.00      0     0.0  0.00   0.0   0.191   0.000   26.8    31    0.00   701    1    100.0   30 
 7/12/19  6:00a    8.4    9.2    8.4    83    5.7   0.0   ---  0.00   0.0   ---    8.4    8.4    8.4    6.4  1029.0  0.00   0.0     5     0.22     18     0.0  0.00   0.0   0.206   0.000   26.7    31    0.00   702    1    100.0   30 
 7/12/19  6:30a    8.7    8.7    8.4    87    6.7   0.0   ---  0.00   0.0   ---    8.7    8.8    8.8    7.3  1029.3  0.00   0.0    41     1.76     76     0.0  0.00   0.0   0.200   0.000   26.6    31    0.00   702    1    100.0   30 
 7/12/19  7:00a   10.3   10.3    8.7    85    7.9   0.0   ---  0.00   0.0   ---   10.3   10.3   10.3    9.8  1029.4  0.00   0.0   113     4.86    163     0.0  0.00   0.0   0.167   0.000   26.5    31    0.03   701    1    100.0   30 
 7/12/19  7:30a   12.2   12.2   10.4    75    7.9   1.6   WSW  0.80  20.9   WSW   12.2   11.9   11.9   15.1  1029.7  0.00   0.0   200     8.60    265     0.0  0.00   0.0   0.128   0.000   26.5    31    0.00   702    1    100.0   30 
 7/12/19  8:00a   13.1   13.1   12.2    73    8.3   6.4   WSW  3.22  29.0   WSW   12.9   12.7   12.4   16.6  1030.0  0.00   0.0   277    11.91    353     0.5  0.11   0.8   0.110   0.000   26.5    31    0.13   701    1    100.0   30 
 7/12/19  8:30a   14.0   14.0   13.1    68    8.2   9.7    SW  4.83  33.8   WSW   13.4   13.5   12.8   17.8  1030.2  0.00   0.0   371    15.96    492     1.0  0.21   1.4   0.090   0.000   26.6    31    0.00   703    1    100.0   30 
 7/12/19  9:00a   14.7   14.7   14.0    66    8.4  11.3     S  5.63  41.8     S   14.1   14.2   13.4   19.0  1030.4  0.00   0.0   485    20.86    619     1.7  0.36   2.2   0.075   0.000   26.8    31    0.25   701    1    100.0   30 
 7/12/19  9:30a   14.8   15.4   14.7    64    8.1  11.3    SW  5.63  38.6   SSE   14.3   14.2   13.4   19.1  1030.4  0.00   0.0   577    24.81    712     2.4  0.51   2.8   0.073   0.000   27.0    31    0.00   703    1    100.0   30 
 7/12/19 10:00a   15.4   15.5   14.7    62    8.2   9.7     S  4.83  32.2    SW   15.2   14.8   14.3   19.9  1030.1  0.00   0.0   555    23.87    673     2.9  0.62   3.3   0.060   0.000   27.2    31    0.33   701    1    100.0   30 
 7/12/19 10:30a   16.4   16.4   15.4    58    8.1   6.4     S  3.22  29.0   SSE   16.4   15.7   15.5   21.1  1030.0  0.00   0.0   696    29.93    796     4.0  0.86   4.5   0.041   0.000   27.4    31    0.00   700    1    100.0   30 
 7/12/19 11:00a   17.3   17.3   16.3    55    8.1   4.8   SSE  2.41  27.4   WSW   17.3   16.5   16.5   21.9  1029.7  0.00   0.0   791    34.02    933     5.2  1.11   5.8   0.022   0.000   27.4    31    0.43   701    1    100.0   30 
 7/12/19 11:30a   17.9   18.6   17.3    51    7.7   4.8    SW  2.41  29.0   SSE   17.9   17.0   17.0   22.2  1029.5  0.00   0.0   841    36.17   1065     5.8  1.24   6.8   0.008   0.000   27.4    31    0.00   700    1    100.0   30 
 7/12/19 12:00p   19.1   19.1   17.9    46    7.2   6.4     S  3.22  32.2     S   19.1   18.0   18.0   24.0  1029.2  0.00   0.0   793    34.10   1004     6.2  1.33   7.6   0.000   0.015   27.4    31    0.48   700    1    100.0   30 
 7/12/19 12:30p   19.3   19.3   18.8    45    7.1   6.4   SSE  3.22  29.0   SSE   19.3   18.3   18.3   24.3  1028.9  0.00   0.0   841    36.17   1107     7.1  1.52   8.8   0.000   0.021   27.4    31    0.00   702    1    100.0   30 
 7/12/19  1:00p   20.8   20.8   19.3    45    8.4   1.6   SSE  0.80  19.3   SSE   20.8   19.7   19.7   25.4  1028.7  0.00   0.0   914    39.31   1132     7.5  1.61   9.0   0.000   0.051   27.4    31    0.53   701    1    100.0   30 
 7/12/19  1:30p   21.3   21.4   20.8    44    8.6   3.2     S  1.61  22.5   SSE   21.3   20.1   20.1   25.7  1028.3  0.00   0.0  1053    45.28   1095     8.5  1.82   8.8   0.000   0.063   27.4    31    0.00   657    1     96.1   30 
 7/12/19  2:00p   21.4   21.4   21.1    45    9.0   6.4    SE  3.22  29.0   ESE   21.4   20.3   20.3   25.9  1028.3  0.00   0.0  1033    44.42   1056     8.4  1.80   8.6   0.000   0.065   27.6    31    0.63   700    1    100.0   30 
 7/12/19  2:30p   22.6   22.6   21.4    42    9.0   4.8   SSE  2.41  29.0   SSE   22.6   21.8   21.8   27.3  1028.2  0.00   0.0   993    42.70   1011     7.9  1.69   8.2   0.000   0.088   27.6    31    0.00   698    1    100.0   30 
 7/12/19  3:00p   23.1   23.1   22.5    41    9.1   6.4     S  3.22  32.2     S   23.1   22.5   22.5   28.1  1028.2  0.00   0.0   950    40.86    979     7.2  1.54   7.6   0.000   0.098   27.4    31    0.63   700    1    100.0   30 
 7/12/19  3:30p   23.1   23.2   22.4    42    9.5  11.3     S  5.63  37.0   SSE   23.1   22.6   22.6   28.2  1028.3  0.00   0.0   899    38.66    926     6.4  1.37   6.9   0.000   0.100   27.4    32    0.00   702    1    100.0   30 
 7/12/19  4:00p   23.2   23.3   23.1    42    9.5   6.4    SW  3.22  32.2   SSE   23.2   22.7   22.7   28.4  1028.3  0.00   0.0   831    35.74    868     5.5  1.18   6.0   0.000   0.101   27.6    32    0.61   659    1     96.3   30 
 7/12/19  4:30p   22.8   23.2   22.8    45   10.3   8.0    SW  4.02  33.8   WSW   22.8   22.3   22.3   28.1  1028.6  0.00   0.0   748    32.17    789     4.4  0.94   4.9   0.000   0.094   27.4    32    0.00   701    1    100.0   30 
 7/12/19  5:00p   21.3   22.8   21.3    52   11.0  14.5    SW  7.24  38.6   SSE   21.3   20.5   19.6   24.8  1028.9  0.00   0.0   656    28.21    703     3.4  0.73   3.9   0.000   0.061   27.4    32    0.51   698    1    100.0   30 
 7/12/19  5:30p   20.6   21.3   20.6    55   11.2   9.7   SSE  4.83  45.1   SSE   20.6   20.1   20.1   25.7  1029.1  0.00   0.0   559    24.04    606     2.5  0.54   2.9   0.000   0.047   27.4    33    0.00   701    1    100.0   30 
 7/12/19  6:00p   19.9   20.6   19.9    56   10.8   9.7     S  4.83  37.0   WSW   19.9   19.5   19.4   24.7  1029.4  0.00   0.0   454    19.52    506     1.7  0.36   2.1   0.000   0.032   27.4    33    0.36   700    1    100.0   30 
 7/12/19  6:30p   18.8   19.9   18.8    60   10.9   9.7     S  4.83  37.0     S   18.8   18.4   18.3   22.9  1029.6  0.00   0.0   350    15.05    397     1.0  0.21   1.3   0.000   0.010   27.4    33    0.00   698    1    100.0   30 
 7/12/19  7:00p   18.7   19.2   18.7    60   10.8   8.0     S  4.02  37.0   WSW   18.7   18.3   18.3   21.9  1030.1  0.00   0.0   249    10.71    297     0.5  0.11   0.7   0.000   0.008   27.2    34    0.23   703    1    100.0   30 
 7/12/19  7:30p   17.8   18.7   17.8    62   10.4   8.0     S  4.02  30.6     S   17.8   17.4   17.2   18.8  1030.7  0.00   0.0   138     5.93    193     0.0  0.00   0.0   0.012   0.000   27.4    34    0.00   702    1    100.0   30 
 7/12/19  8:00p   16.4   17.8   16.4    65    9.8   8.0    SW  4.02  30.6   WSW   16.4   16.1   15.8   14.4  1031.1  0.00   0.0    39     1.68     86     0.0  0.00   0.0   0.039   0.000   27.4    34    0.10   703    1    100.0   30 
 7/12/19  8:30p   15.7   16.4   15.7    69   10.0   1.6   SSW  0.80  22.5   WSW   15.7   15.3   15.3   13.6  1031.5  0.00   0.0    11     0.47     23     0.0  0.00   0.0   0.056   0.000   27.4    34    0.00   700    1    100.0   30 
 7/12/19  9:00p   15.1   15.7   15.1    72   10.1   0.0     S  0.00  16.1     S   15.1   14.8   14.8   13.0  1032.1  0.00   0.0     0     0.00      0     0.0  0.00   0.0   0.067   0.000   27.3    34    0.03   700    1    100.0   30 
 7/12/19  9:30p   14.8   15.1   14.8    73   10.0   0.0    SE  0.00  14.5   SSE   14.8   14.4   14.4   12.7  1032.3  0.00   0.0     0     0.00      0     0.0  0.00   0.0   0.074   0.000   27.3    34    0.00   699    1    100.0   30 
 7/12/19 10:00p   14.3   14.8   14.3    74    9.8   0.0    SE  0.00  19.3    SE   14.3   14.0   14.0   12.2  1032.7  0.00   0.0     0     0.00      0     0.0  0.00   0.0   0.083   0.000   27.2    34    0.03   702    1    100.0   30 
 7/12/19 10:30p   14.2   14.3   14.1    76   10.0   0.0    SE  0.00  16.1    SE   14.2   13.9   13.9   12.2  1032.5  0.00   0.0     0     0.00      0     0.0  0.00   0.0   0.087   0.000   27.2    34    0.00   702    1    100.0   30 
 7/12/19 11:00p   14.1   14.2   14.1    77   10.1   0.0    SE  0.00  12.9    SE   14.1   13.8   13.8   12.1  1032.5  0.00   0.0     0     0.00      0     0.0  0.00   0.0   0.089   0.000   27.2    34    0.03   702    1    100.0   30 
 7/12/19 11:30p   13.9   14.1   13.9    78   10.2   0.0   ---  0.00   0.0   ---   13.9   13.7   13.7   11.9  1032.4  0.00   0.0     0     0.00      0     0.0  0.00   0.0   0.091   0.000   27.2    34    0.00   703    1    100.0   30 
 8/12/19 12:00a   13.8   13.9   13.8    79   10.2   0.0   ---  0.00   0.0   ---   13.8   13.6   13.6   11.8  1032.5  0.00   0.0     0     0.00      0     0.0  0.00   0.0   0.095   0.000   27.2    34    0.03   701    1    100.0   30 
 8/12/19 12:30a   13.7   13.8   13.6    79   10.1   0.0   ---  0.00   0.0   ---   13.7   13.5   13.5   11.7  1032.2  0.00   0.0     0     0.00      0     0.0  0.00   0.0   0.097   0.000   27.2    34    0.00   701    1    100.0   30